jacobvl39 Games - Total: 58862
Rank Song Name Score PGAMB Combo Time
51 KATAMARI 1,850,120 1,189 - 4 - 2 - 0 - 2 1,195 2026-03-14 15:01:09
114 The Devil Plays Dance Games [FC] 2,436,325 1,571 - 1 - 0 - 0 - 0 1,572 2026-03-14 14:59:11
785 Head Banger 540,655 348 - 1 - 0 - 0 - 1 349 2026-03-14 14:56:26
524 Head Banger 1,141,985 737 - 1 - 0 - 2 - 1 737 2026-03-14 14:55:47
1,269 2-9 994,035 639 - 2 - 1 - 0 - 1 642 2026-03-14 14:53:57
113 /mu/tant corecore [FC] 784,005 505 - 1 - 0 - 0 - 1 506 2026-03-14 14:52:43
118 /mu/tant corecore [FC] 783,750 504 - 2 - 0 - 0 - 0 506 2026-03-14 14:51:58
488 Fernando 1,788,655 1,150 - 4 - 1 - 0 - 0 1,155 2026-03-14 14:50:30
133 Fernando 1,830,110 1,272 - 3 - 1 - 1 - 3 1,130 2026-03-14 14:47:57
1 Fast Fissure (Atomhead RMX) [AAA] [FC] [PB] 1,957,650 1,263 - 0 - 0 - 0 - 0 1,263 2026-03-14 14:44:42
56 Fast Fissure (Atomhead RMX) [FC] 1,957,135 1,262 - 0 - 1 - 0 - 1 1,263 2026-03-14 14:41:38
285 Disconnected Hardkore v2 1,753,150 1,128 - 4 - 0 - 1 - 2 1,132 2026-03-14 14:33:43
1,155 Balloon Fight [Heavy] 238,150 152 - 2 - 0 - 0 - 0 154 2026-03-14 14:31:17
710 Balloon Fight [Heavy] 740,800 475 - 3 - 1 - 1 - 1 479 2026-03-14 14:30:51
1,052 Autoprocess 984,080 632 - 4 - 0 - 2 - 0 636 2026-03-14 14:29:48
286 Sybian Rock 760,340 518 - 10 - 0 - 1 - 0 473 2026-03-14 14:27:59
1,188 100 Hours of Regrets 1,460,255 938 - 5 - 0 - 0 - 1 943 2026-03-14 14:26:07
71 100 Hours of Regrets [FC] [PB] 1,848,050 1,189 - 4 - 0 - 0 - 0 1,193 2026-03-14 14:22:59
1,035 100 Hours of Regrets 1,577,655 1,046 - 6 - 1 - 1 - 2 1,001 2026-03-14 14:20:01
6,366 Nomina Nuda Tenemus [Heavy] 443,495 284 - 2 - 1 - 1 - 0 287 2026-03-14 14:17:30
3,398 All i wanna do is touch your powerpoints 1,478,790 961 - 6 - 0 - 11 - 0 952 2026-03-14 14:15:54
43 Starbound [PB] 12,147,975 9,405 - 13 - 0 - 1 - 2 6,972 2026-03-14 12:49:17
173 Starbound 11,179,630 7,210 - 14 - 0 - 2 - 5 7,211 2026-03-14 12:35:29
200 Starbound 2,738,430 1,773 - 6 - 0 - 1 - 3 1,762 2026-03-14 12:22:14
183 Starbound 6,169,985 4,752 - 12 - 1 - 3 - 2 3,554 2026-03-14 12:19:24
190 Starbound 3,774,050 2,427 - 9 - 1 - 1 - 1 2,437 2026-03-14 12:12:37
67 Wake The Dead 863,085 714 - 13 - 0 - 7 - 1 469 2026-03-13 15:42:58
77 Wake The Dead 493,150 309 - 10 - 2 - 2 - 2 321 2026-03-13 15:41:28
74 Wake The Dead 837,130 532 - 9 - 1 - 0 - 0 542 2026-03-13 15:41:01
183 Starbound 4,014,555 3,912 - 7 - 0 - 3 - 2 1,862 2026-03-13 15:39:55
199 Starbound 2,741,425 1,765 - 2 - 3 - 0 - 2 1,770 2026-03-13 15:34:00
189 Starbound 3,867,480 2,500 - 4 - 0 - 2 - 0 2,492 2026-03-13 15:30:29
187 Starbound 4,053,400 2,611 - 3 - 3 - 2 - 1 2,617 2026-03-13 15:26:50
47 Starbound [PB] 9,093,255 9,403 - 13 - 0 - 3 - 2 3,919 2026-03-13 15:20:32
225 Starbound 1,283,005 824 - 4 - 1 - 1 - 2 829 2026-03-13 15:06:19
225 Starbound 1,283,895 829 - 1 - 0 - 1 - 1 828 2026-03-13 15:04:24
48 Starbound [PB] 12,146,105 9,399 - 18 - 1 - 1 - 2 6,972 2026-03-13 14:59:47
324 floating point (Drumcorps Remix) 1,256,650 1,270 - 4 - 0 - 3 - 1 558 2026-03-13 14:45:19
610 floating point (Drumcorps Remix) 317,505 207 - 1 - 0 - 2 - 0 204 2026-03-13 14:41:37
147 floating point (Drumcorps Remix) 2,925,105 2,630 - 9 - 4 - 3 - 8 1,477 2026-03-13 14:41:04
51 floating point (Drumcorps Remix) [PB] 3,654,920 2,690 - 14 - 0 - 1 - 6 2,172 2026-03-13 14:35:16
639 Stress Free Style 678,635 467 - 11 - 2 - 1 - 2 419 2026-03-13 14:31:41
5,968 Rave 7 384,720 250 - 2 - 0 - 1 - 1 247 2026-03-13 14:30:54
5,054 Rave 7 618,005 417 - 3 - 2 - 4 - 2 389 2026-03-13 14:30:31
10,680 do i smile? 107,255 73 - 1 - 0 - 7 - 0 69 2026-03-13 14:29:40
106 You Show [PB] 2,797,870 1,820 - 12 - 0 - 1 - 6 1,794 2026-03-13 14:27:58
147 You Show 2,795,290 1,808 - 23 - 1 - 1 - 9 1,795 2026-03-13 14:24:59
88 ETERNAL DRAIN v2 2,372,470 1,893 - 77 - 3 - 6 - 8 1,312 2026-03-13 14:22:32
74 ETERNAL DRAIN v2 [PB] 2,103,975 2,224 - 70 - 7 - 12 - 7 865 2026-03-13 14:19:52
321 High-Priestess 1,664,760 1,774 - 31 - 1 - 8 - 2 683 2026-03-13 14:17:35
146 High-Priestess 2,366,275 1,963 - 31 - 0 - 6 - 2 1,280 2026-03-13 14:10:20
138 High-Priestess [PB] 2,292,190 1,965 - 29 - 1 - 5 - 2 1,205 2026-03-13 14:05:48
838 DISCHARGE RUSH 1,609,760 1,258 - 14 - 0 - 3 - 3 915 2026-03-13 14:03:08
84 Unconnected. 1,476,000 1,407 - 14 - 0 - 2 - 4 699 2026-03-13 13:59:22
84 Unconnected. [PB] 1,559,000 1,407 - 14 - 0 - 2 - 4 782 2026-03-13 13:57:18
953 Call me it. (500 Tortures) 1,779,755 1,669 - 23 - 0 - 8 - 2 858 2026-03-13 13:55:05
1,269 Extratone Pirates (Drunk Optimus Remix) 1,744,970 1,203 - 7 - 1 - 2 - 2 1,082 2026-03-13 13:52:55
94 Cull [Oni] 1,570,345 1,147 - 3 - 0 - 1 - 1 939 2026-03-13 13:51:18
91 Cull [Oni] 1,830,955 1,429 - 5 - 0 - 1 - 3 1,044 2026-03-13 13:49:12
21 Cull [Oni] [FC] 2,645,710 1,702 - 6 - 0 - 0 - 2 1,708 2026-03-13 13:46:26
90 aballava(?) 297,420 197 - 0 - 0 - 3 - 0 190 2026-03-13 13:43:02
42 aballava(?) 2,381,095 1,845 - 11 - 0 - 2 - 3 1,364 2026-03-13 13:41:52
187 A Battle I Absolutely Can't Lose ~ Kill the Nyanko 751,200 483 - 2 - 0 - 0 - 0 485 2026-03-13 13:38:51
277 Mike French Hardcore Custom 1,101,650 712 - 7 - 1 - 3 - 0 709 2026-03-13 13:37:29
37 LeaF Style Super Shredder 3 [FC] [PB] 2,364,475 1,523 - 3 - 0 - 0 - 0 1,526 2026-03-13 13:36:14
199 Apocaliptix 862,470 555 - 2 - 0 - 1 - 1 557 2026-03-13 13:33:13
124 ANiMA [Deemo Cut] [PB] 2,357,765 1,534 - 5 - 0 - 1 - 0 1,513 2026-03-13 13:31:56
53 Angel's Ladder [FC] [PB] 2,460,280 1,584 - 4 - 0 - 0 - 1 1,588 2026-03-13 13:29:40
77 Dishevel [FC] [PB] 2,373,810 1,530 - 1 - 1 - 0 - 1 1,532 2026-03-13 13:27:23
526 Breakbeat Acid 1,116,230 717 - 3 - 1 - 0 - 0 721 2026-03-13 13:24:21
1 Break [AAA] [FC] [PB] 2,129,700 1,374 - 0 - 0 - 0 - 0 1,374 2026-03-13 13:21:42
156 Poppy 1,990,265 1,306 - 1 - 0 - 1 - 0 1,272 2026-03-13 13:19:56
140 Heterochromia Iridis v2 2,773,415 1,795 - 3 - 0 - 2 - 2 1,786 2026-03-13 13:16:53
127 Hardkore Atomic [FC] [PB] 1,601,600 1,030 - 4 - 0 - 0 - 0 1,034 2026-03-13 13:13:35
157 Hardkore Atomic [FC] [PB] 1,601,285 1,029 - 5 - 0 - 0 - 2 1,034 2026-03-13 13:10:27
98 I Hate The 80s [FC] [PB] 1,561,555 1,005 - 3 - 0 - 0 - 1 1,008 2026-03-13 13:08:15
443 Giselle 951,680 615 - 0 - 0 - 5 - 1 615 2026-03-13 13:06:20
63 Shotgun Surgery [FC] [PB] 4,844,750 3,124 - 2 - 0 - 0 - 0 3,126 2026-03-13 13:04:40
88 Electro Rush x8 v2 [PB] 1,697,370 1,214 - 0 - 0 - 1 - 1 1,030 2026-03-13 12:59:17
939 Head Banger 224,180 143 - 2 - 0 - 0 - 1 145 2026-03-13 12:57:08
557 Ascension to Heaven 1,135,875 732 - 1 - 0 - 0 - 0 733 2026-03-13 12:56:22
284 Sybian Rock 779,870 522 - 4 - 0 - 1 - 1 492 2026-03-13 12:54:24
954 Jamais Deux 1,320,775 850 - 2 - 1 - 1 - 1 853 2026-03-13 12:53:28
564 Lamuscore 1,290,875 836 - 1 - 0 - 20 - 0 837 2026-03-13 12:52:00
1 Love & Justice [AAA] [FC] [PB] 2,352,900 1,518 - 0 - 0 - 0 - 0 1,518 2026-03-13 12:49:17
37 Life Gauge [FC] [PB] 2,803,400 1,807 - 2 - 0 - 0 - 0 1,809 2026-03-13 12:46:22
316 Life Gauge 1,088,920 707 - 0 - 0 - 3 - 0 701 2026-03-13 12:43:40
13 divine strike [Heavy] [FC] [PB] 1,944,975 1,254 - 1 - 0 - 0 - 0 1,255 2026-03-13 12:41:16
584 BEER [Is-m] 637,370 414 - 0 - 0 - 1 - 1 410 2026-03-13 12:38:36
58 BEER [Is-m] [FC] [PB] 1,814,775 1,170 - 1 - 0 - 0 - 0 1,171 2026-03-13 12:37:41
67 Slashmaid [FC] 3,020,400 1,947 - 2 - 0 - 0 - 0 1,949 2026-03-13 12:35:06
80 Slashmaid [FC] 3,020,125 1,946 - 3 - 0 - 0 - 0 1,949 2026-03-13 12:32:17
1,508 Thundersnail 319,460 206 - 1 - 1 - 7 - 0 208 2026-03-13 00:56:33
188 Thundersnail [FC] 997,925 643 - 1 - 0 - 0 - 0 644 2026-03-13 00:56:16
216 Thundersnail [FC] 997,705 643 - 0 - 1 - 0 - 0 644 2026-03-13 00:55:32
1 Thundersnail [AAA] [FC] 998,200 644 - 0 - 0 - 0 - 0 644 2026-03-13 00:54:47
387 Thundersnail 636,675 634 - 7 - 0 - 3 - 1 287 2026-03-13 00:54:02
185 Thundersnail [FC] 998,180 644 - 0 - 0 - 0 - 1 644 2026-03-13 00:53:18
141 Fushigi Usagi Milk Tei 2,191,340 1,775 - 10 - 0 - 2 - 2 1,213 2026-03-13 00:44:32
369 floating point (Drumcorps Remix) 883,870 779 - 12 - 0 - 6 - 1 454 2026-03-13 00:39:27
138 Dark Side 1,792,425 1,355 - 30 - 1 - 3 - 10 1,040 2026-03-13 00:34:34
153 Dark Side 1,119,725 843 - 13 - 4 - 2 - 5 653 2026-03-13 00:32:22
146 Dark Side 1,758,830 1,116 - 24 - 2 - 2 - 3 1,139 2026-03-13 00:30:27
222 Starbound 1,257,170 810 - 1 - 1 - 2 - 2 812 2026-03-13 00:24:13
80 Starbound 8,635,490 9,342 - 69 - 3 - 5 - 10 3,480 2026-03-13 00:21:24
31 Death Opera 2,828,335 2,256 - 15 - 2 - 2 - 4 1,584 2026-03-12 20:57:02
79 Reparatus+Paradisus 3,108,870 2,092 - 18 - 0 - 2 - 3 1,954 2026-03-12 20:54:10
29 Reparatus+Paradisus 2,296,970 2,630 - 11 - 1 - 5 - 3 849 2026-03-12 20:50:40
322 Fotvaerk 552,525 354 - 3 - 0 - 0 - 0 357 2026-03-12 20:46:42
206 Fotvaerk 1,330,555 1,000 - 6 - 1 - 23 - 1 786 2026-03-12 20:46:10
245 PUPA 1,357,610 1,592 - 11 - 7 - 4 - 8 480 2026-03-12 20:44:36
480 Antigravity 1,426,605 917 - 9 - 0 - 20 - 1 926 2026-03-12 20:42:15
359 Antigravity 2,314,720 1,491 - 8 - 0 - 21 - 1 1,499 2026-03-12 20:39:51
103 Antigravity 2,412,380 1,661 - 8 - 0 - 1 - 3 1,497 2026-03-12 20:38:00
308 Longinus 2,538,670 1,911 - 12 - 0 - 2 - 3 1,485 2026-03-12 20:35:02
24 Mope Mope [FC] [PB] 1,650,630 1,060 - 6 - 0 - 0 - 1 1,066 2026-03-12 20:32:20
33 Mope Mope [FC] [PB] 1,648,720 1,054 - 11 - 1 - 0 - 3 1,066 2026-03-12 20:30:12
68 Mope Mope 845,845 539 - 7 - 2 - 2 - 1 548 2026-03-12 20:28:15
424 Q.E. 161,890 103 - 2 - 0 - 1 - 0 105 2026-03-12 20:26:41
370 Q.E. 510,020 341 - 0 - 0 - 21 - 1 329 2026-03-12 20:26:16
329 Q.E. 1,382,890 899 - 4 - 0 - 2 - 2 888 2026-03-12 20:24:28
312 Q.E. 1,828,225 1,253 - 5 - 0 - 4 - 3 1,139 2026-03-12 20:21:09
60 shule ya samaki 761,365 484 - 9 - 0 - 1 - 0 493 2026-03-12 20:18:37
50 shule ya samaki 2,384,995 1,537 - 7 - 0 - 20 - 4 1,544 2026-03-12 20:05:05
70 shule ya samaki 476,850 306 - 2 - 0 - 0 - 0 308 2026-03-12 20:03:15
68 shule ya samaki 542,035 350 - 5 - 0 - 22 - 1 355 2026-03-12 20:02:50
58 shule ya samaki 1,107,540 797 - 9 - 1 - 4 - 5 668 2026-03-12 20:02:03
110 Slash Dot Slash (Slim boy fat) 4,217,935 2,894 - 14 - 3 - 2 - 8 2,623 2026-03-12 20:00:47
147 Slash Dot Slash (Slim boy fat) 1,293,785 831 - 5 - 0 - 2 - 1 836 2026-03-12 19:55:07
76 Slash Dot Slash (Slim boy fat) 4,328,115 3,060 - 32 - 1 - 2 - 6 2,637 2026-03-12 19:51:52
171 Slash Dot Slash (Slim boy fat) 309,625 198 - 4 - 1 - 11 - 1 203 2026-03-12 19:48:34
439 The Candy Corn Witch 1,246,115 800 - 4 - 1 - 0 - 2 805 2026-03-12 19:47:45
533 The Candy Corn Witch 354,930 229 - 0 - 0 - 0 - 1 229 2026-03-12 19:45:49
539 The Candy Corn Witch 239,300 155 - 0 - 0 - 3 - 1 155 2026-03-12 19:45:13
95 Piano Etude (Demon Fire) [Oni] 2,754,460 2,137 - 11 - 1 - 3 - 2 1,577 2026-03-12 19:43:09
183 SHIND BAD [1.2x] 1,369,465 1,802 - 121 - 6 - 10 - 7 348 2026-03-12 19:38:44
197 SHIND BAD [1.2x] 1,008,210 1,071 - 103 - 3 - 17 - 3 396 2026-03-12 19:36:25
179 Erase Me 639,030 409 - 4 - 0 - 0 - 1 413 2026-03-12 19:34:31
189 THE DROP 1,284,705 831 - 3 - 0 - 7 - 0 829 2026-03-12 19:23:16
14 Unit:Squash! [FC] [PB] 2,876,780 1,856 - 0 - 0 - 0 - 1 1,856 2026-03-12 19:21:17
184 breakthrough 619,070 616 - 8 - 0 - 3 - 0 279 2026-03-12 13:31:33
123 Love Song [Negradolna] 717,790 820 - 96 - 4 - 15 - 9 245 2026-03-11 13:49:09
137 Extratone Firestorm 1,880,430 2,645 - 540 - 30 - 119 - 29 313 2026-03-11 13:47:22
149 Undici [PB] 2,472,855 3,031 - 255 - 18 - 35 - 23 746 2026-03-11 13:43:47
3,683 Revolutionary Etude 1,789,885 1,225 - 24 - 1 - 8 - 2 1,112 2026-03-11 13:39:24
516 VIS::CRACKED 1,104,900 1,016 - 7 - 3 - 3 - 3 545 2026-03-11 13:36:29
171 VIS::CRACKED [PB] 3,121,675 2,518 - 27 - 0 - 5 - 5 1,731 2026-03-11 13:34:28
187 VIS::CRACKED [PB] 2,553,385 2,513 - 31 - 2 - 4 - 8 1,164 2026-03-11 13:30:04
2,188 Jamais Vu 449,625 366 - 8 - 1 - 3 - 0 247 2026-03-11 13:26:20
1,126 Happy Arnold=) 92,395 56 - 7 - 0 - 1 - 1 60 2026-03-11 13:25:04
1,446 G e n g a o z o 455,130 292 - 2 - 0 - 0 - 1 294 2026-03-11 13:24:21
642 G e n g a o z o 3,003,680 2,715 - 19 - 3 - 6 - 5 1,507 2026-03-11 13:21:56
890 G e n g a o z o 1,882,820 1,462 - 16 - 0 - 2 - 3 1,075 2026-03-11 13:18:08
248 to Luv me I *** for u. 3,209,920 2,303 - 42 - 2 - 7 - 11 1,934 2026-03-11 13:15:32
150 res extensa 846,380 930 - 201 - 5 - 31 - 3 289 2026-03-11 13:12:21
252 res extensa 17,050 11 - 0 - 0 - 0 - 0 11 2026-03-11 13:11:07
104 Vantablack [PB] 2,517,120 2,996 - 30 - 8 - 7 - 10 863 2026-03-10 22:39:54
68 O Wings that Embrace Senju Banmei [PB] 1,654,840 1,792 - 30 - 0 - 3 - 4 662 2026-03-10 22:34:21
150 Hyper Weaboo Vodka Shots [PB] 2,185,510 2,062 - 23 - 1 - 3 - 2 1,046 2026-03-10 22:29:39
1,020 cold (Kurorak's Bootleg) 1,006,455 929 - 9 - 0 - 3 - 2 494 2026-03-10 22:26:58
936 cold (Kurorak's Bootleg) 1,208,190 981 - 12 - 0 - 2 - 2 666 2026-03-10 22:25:43
165 cold (Kurorak's Bootleg) 1,559,665 1,721 - 23 - 0 - 7 - 2 609 2026-03-10 22:24:20
205 DISCHARGE RUSH [PB] 2,136,855 1,865 - 17 - 0 - 5 - 1 1,108 2026-03-10 22:21:16
231 DISCHARGE RUSH 1,664,330 1,859 - 22 - 2 - 4 - 2 637 2026-03-10 22:17:27
87 Comatose State [PB] 2,418,610 1,750 - 20 - 0 - 1 - 4 1,451 2026-03-10 22:13:31
205 Comatose State 1,219,540 1,068 - 16 - 2 - 1 - 3 628 2026-03-10 22:11:17
112 Comatose State 1,968,320 1,742 - 26 - 0 - 3 - 0 1,004 2026-03-10 22:09:10
231 Comatose State 1,184,015 755 - 10 - 1 - 0 - 2 766 2026-03-10 22:06:49
160 UR+ MusicEater LV99 992,240 626 - 15 - 3 - 1 - 2 644 2026-03-10 22:05:22
111 Clockwork Dragon [PB] 1,854,935 2,003 - 68 - 1 - 11 - 3 738 2026-03-10 22:03:10
90 Schwerkraft [PB] 1,857,525 2,096 - 83 - 8 - 8 - 3 684 2026-03-10 21:59:02
95 Schwerkraft 1,989,000 2,084 - 83 - 5 - 10 - 10 823 2026-03-10 21:56:26
97 Schwerkraft 2,375,965 2,056 - 125 - 6 - 8 - 3 1,213 2026-03-10 21:54:06
62 Crystal Chamber Combustion v2 [PB] 1,435,160 1,800 - 118 - 10 - 28 - 8 421 2026-03-10 21:50:55
73 Crystal Chamber Combustion v2 1,396,520 1,622 - 136 - 8 - 46 - 8 481 2026-03-10 21:48:48
201 Odd-22 [PB] 2,436,660 2,188 - 60 - 2 - 7 - 9 1,219 2026-03-10 21:46:15
218 Odd-22 1,964,075 2,164 - 81 - 4 - 8 - 7 754 2026-03-10 21:43:31
284 I'm A Fucking Idiot 1,981,530 1,614 - 44 - 0 - 7 - 5 1,084 2026-03-10 21:40:34
102 I'm A Fucking Idiot 2,606,545 2,518 - 72 - 9 - 11 - 12 1,205 2026-03-10 21:38:25
277 I'm A Fucking Idiot 1,386,455 1,647 - 39 - 6 - 27 - 4 478 2026-03-10 21:35:15
191 Wanderflux [PB] 2,428,385 2,845 - 150 - 17 - 27 - 9 830 2026-03-10 21:30:57
36 Xuasar Charge [PB] 2,681,050 3,115 - 95 - 7 - 11 - 15 945 2026-03-10 21:26:25
59 Xuasar Charge 1,633,105 1,447 - 60 - 5 - 14 - 9 825 2026-03-10 21:22:30
54 Xuasar Charge 1,555,230 1,672 - 71 - 9 - 33 - 8 626 2026-03-10 21:20:40
37 Xuasar Charge [PB] 2,498,450 3,088 - 117 - 9 - 14 - 14 772 2026-03-10 21:18:06
225 PEACE BREAKER 1,464,710 1,392 - 88 - 8 - 11 - 6 678 2026-03-10 21:14:15
101 Gamma Stop Sending Me High Quality Rips [PB] 2,475,675 3,493 - 166 - 5 - 36 - 12 520 2026-03-10 21:06:28
47 SHIMASHO!!!!!!! 1,767,975 1,428 - 14 - 1 - 1 - 1 979 2026-03-09 12:21:19
89 Black Chocolates 2,379,735 2,455 - 15 - 0 - 2 - 1 1,026 2026-03-09 12:18:46
106 Black Chocolates 2,284,900 1,469 - 12 - 0 - 1 - 2 1,474 2026-03-09 12:15:07
56 Black Chocolates 3,624,975 4,162 - 22 - 3 - 4 - 5 1,331 2026-03-09 12:13:03
113 Black Chocolates 2,090,590 1,355 - 6 - 0 - 1 - 0 1,344 2026-03-09 12:08:45
124 Black Chocolates 858,120 829 - 4 - 0 - 3 - 0 402 2026-03-09 12:05:20
153 SHIND BAD 4,109,970 2,755 - 6 - 0 - 3 - 0 2,594 2026-03-09 12:03:36
182 SHIND BAD 2,933,720 1,888 - 6 - 0 - 1 - 1 1,894 2026-03-09 11:59:29
212 SHIND BAD 1,206,810 781 - 3 - 1 - 2 - 0 777 2026-03-09 11:52:07
196 Poppy 367,330 246 - 6 - 0 - 2 - 0 231 2026-03-09 11:50:51
2,038 Fastest Pointer-Finger in the West [2.2x] [FC] 19,855 12 - 1 - 0 - 0 - 1 13 2026-03-09 11:46:26
2,309 Fastest Pointer-Finger in the West [2.2x] [FC] 19,325 10 - 3 - 0 - 0 - 0 13 2026-03-09 11:46:17
2,585 Fastest Pointer-Finger in the West [2.2x] [FC] 19,050 9 - 4 - 0 - 0 - 0 13 2026-03-09 11:44:51
1,840 Fastest Pointer-Finger in the West [2.2x] [FC] 19,875 12 - 1 - 0 - 0 - 0 13 2026-03-09 11:44:42
4,422 Fastest Pointer-Finger in the West [2.2x] 11,825 6 - 3 - 0 - 4 - 3 9 2026-03-09 11:44:21
1,840 Fastest Pointer-Finger in the West [2.2x] [FC] 19,875 12 - 1 - 0 - 0 - 0 13 2026-03-09 11:44:07
1 Fastest Pointer-Finger in the West [2x] [AAA] [FC] 20,150 13 - 0 - 0 - 0 - 0 13 2026-03-09 11:43:48
1,840 Fastest Pointer-Finger in the West [2x] [FC] 19,875 12 - 1 - 0 - 0 - 0 13 2026-03-09 11:43:35
2,245 Fastest Pointer-Finger in the West [2x] [FC] 19,580 11 - 2 - 0 - 0 - 1 13 2026-03-09 11:43:25
4,632 Fastest Pointer-Finger in the West [2x] 4,995 4 - 1 - 0 - 8 - 0 5 2026-03-09 11:42:59
1 Fastest Pointer-Finger in the West [AAA] [FC] 20,150 13 - 0 - 0 - 0 - 0 13 2026-03-09 11:42:26
1 Fastest Pointer-Finger in the West [AAA] [FC] 20,150 13 - 0 - 0 - 0 - 0 13 2026-03-09 11:42:03
325 WANDERLUST 1,430,815 1,720 - 17 - 0 - 6 - 0 482 2026-03-08 18:47:51
2,025 DeVouR 879,690 674 - 6 - 0 - 2 - 2 508 2026-03-08 18:44:35
87 Bop on Chip 885,645 573 - 3 - 0 - 1 - 1 570 2026-03-08 18:42:56
156 grind2 v2 [FC] 1,470,535 943 - 7 - 0 - 0 - 2 950 2026-03-08 18:40:18
260 grind2 v2 999,510 638 - 9 - 1 - 6 - 3 648 2026-03-08 18:38:22
13,581 Grand Galop Chromatique 413,005 264 - 3 - 0 - 0 - 1 267 2026-03-08 18:36:53
4,869 Integraation 222,715 145 - 1 - 0 - 1 - 0 143 2026-03-08 18:34:42
2,506 PANTS 3,746,420 2,409 - 9 - 1 - 0 - 3 2,419 2026-03-08 18:32:53
264 PANTS [FC] [PB] 4,683,915 3,013 - 10 - 1 - 0 - 2 3,024 2026-03-08 18:26:43
93 OWA Raged at Home Run Derby [PB] 2,416,655 3,012 - 43 - 2 - 12 - 8 752 2026-03-06 19:45:21
127 OWA Raged at Home Run Derby 1,928,220 1,653 - 27 - 3 - 24 - 4 1,019 2026-03-06 19:41:14
133 OWA Raged at Home Run Derby 1,382,420 1,119 - 20 - 2 - 2 - 1 762 2026-03-06 19:39:14
97 OWA Raged at Home Run Derby [PB] 2,307,925 3,001 - 53 - 2 - 13 - 14 647 2026-03-06 19:36:16
126 OWA Raged at Home Run Derby 1,641,995 1,795 - 53 - 2 - 6 - 4 642 2026-03-06 19:31:57
103 OWA Raged at Home Run Derby [SR] 2,392,335 2,971 - 74 - 7 - 17 - 9 743 2026-03-06 19:27:35
1 cafe terrace at dusk [AAA] [FC] [PB] 1,926,650 1,243 - 0 - 0 - 0 - 0 1,243 2026-03-06 19:16:50
243 Extratone in a Perfect World 511,460 329 - 3 - 1 - 1 - 3 330 2026-03-06 19:14:38
81 Extratone in a Perfect World 1,347,860 1,328 - 5 - 1 - 3 - 2 617 2026-03-06 19:13:37
351 FACTORY_RESET 528,465 350 - 1 - 0 - 1 - 0 336 2026-03-06 19:11:44
243 FACTORY_RESET 1,726,130 1,110 - 7 - 1 - 1 - 2 1,114 2026-03-06 19:11:04
785 grind4 587,285 509 - 13 - 0 - 4 - 0 305 2026-03-06 19:09:33
223 Happy Ending (Kkrusty's We Ready Remix) 1,851,890 1,190 - 5 - 1 - 0 - 2 1,196 2026-03-06 19:08:17
35 Happy Ending (Kkrusty's We Ready Remix) [FC] 1,945,935 1,253 - 3 - 0 - 0 - 2 1,256 2026-03-06 19:06:26
212 Here We Go 1,447,855 930 - 5 - 0 - 0 - 1 935 2026-03-06 19:02:52
638 No Time For Sleep 352,970 236 - 4 - 0 - 3 - 0 223 2026-03-06 19:01:15
217 Rationalist 742,865 477 - 3 - 0 - 1 - 0 480 2026-03-06 19:00:00
936 Scrap Syndrome 2,015,420 1,303 - 4 - 0 - 1 - 1 1,298 2026-03-06 18:59:21
111 Angelic Jelly [FC] 2,241,980 1,440 - 7 - 1 - 0 - 0 1,448 2026-03-06 18:57:11
111 Angelic Jelly [PB] 2,037,850 1,441 - 6 - 0 - 1 - 2 1,244 2026-03-06 18:54:33
671 Angelic Jelly 940,300 609 - 2 - 0 - 20 - 0 611 2026-03-06 18:52:26
1,096 Counter Clockwise Chant Pattern 1,657,885 1,064 - 6 - 1 - 0 - 1 1,071 2026-03-06 18:50:59
50 INSANE INFLAME [PB] 2,782,915 2,446 - 7 - 0 - 1 - 0 1,436 2026-03-06 18:47:08
77 Move Yer Ass 1,364,040 1,291 - 6 - 0 - 2 - 2 653 2026-03-06 18:43:40
25 Move Yer Ass 1,559,800 1,725 - 10 - 0 - 2 - 4 609 2026-03-06 18:41:35
134 Hopeful Frontier!!! 1,504,930 966 - 6 - 0 - 0 - 1 972 2026-03-06 18:38:27
105 Heavenly Castle velier [PB] 2,575,505 2,265 - 5 - 0 - 2 - 0 1,329 2026-03-06 18:36:21
348 Heavenly Castle velier 2,461,130 1,580 - 10 - 0 - 2 - 0 1,590 2026-03-06 18:33:49
130 Heavenly Castle velier [PB] 2,738,850 2,257 - 14 - 0 - 1 - 2 1,494 2026-03-06 18:30:09
144 Heavenly Castle velier 2,194,840 2,256 - 12 - 0 - 4 - 1 952 2026-03-06 18:27:25
37 Gaviscon 3,186,560 2,046 - 12 - 0 - 0 - 2 2,058 2026-03-06 18:24:48
22 Gaviscon [FC] [PB] 3,227,155 2,073 - 11 - 0 - 0 - 1 2,084 2026-03-06 18:21:14
50 Gaviscon 1,686,785 1,695 - 9 - 2 - 3 - 6 753 2026-03-06 18:16:38
37 Gaviscon 3,091,130 2,043 - 14 - 0 - 1 - 3 1,964 2026-03-06 18:12:34
49 Gaviscon 1,886,305 1,712 - 17 - 0 - 3 - 2 941 2026-03-06 18:09:47
55 Gaviscon 1,253,100 1,012 - 14 - 0 - 1 - 2 693 2026-03-06 18:07:11
55 Gaviscon 1,138,590 1,010 - 16 - 0 - 1 - 0 579 2026-03-06 18:05:32
416 Frictional Nevada v2 585,535 369 - 9 - 2 - 0 - 0 380 2026-03-06 18:03:25
65 ABC [SR] 298,875 192 - 1 - 0 - 0 - 0 193 2026-03-06 18:00:59
5,782 Eclipse (Solar) 1,366,805 881 - 1 - 0 - 0 - 1 882 2026-03-06 14:00:49
441 Six Acid Strings 804,150 528 - 4 - 0 - 1 - 2 513 2026-03-06 13:58:25
354 Six Acid Strings 1,846,570 1,250 - 17 - 1 - 2 - 2 1,155 2026-03-06 13:57:27
135 Mario Trap 1,614,600 1,040 - 18 - 0 - 1 - 2 1,038 2026-03-06 13:53:48
25 Secret Area (Between My Legs) 1,192,470 932 - 8 - 0 - 1 - 1 678 2026-03-06 13:51:59
175 A Battle I Absolutely Can't Lose ~ Kill the Nyanko 982,150 632 - 2 - 0 - 0 - 0 634 2026-03-06 13:50:13
485 Excuse My Rudeness, but Could You Please RIP? (t+pazolite Remix) 217,230 139 - 0 - 2 - 1 - 1 141 2026-03-06 13:49:01
234 Credits EX 1,149,555 742 - 3 - 0 - 1 - 3 741 2026-03-06 13:48:08
267 Credits EX 470,340 302 - 2 - 0 - 1 - 0 304 2026-03-06 13:46:24
2,531 Winter Wind Etude 1,826,810 1,374 - 10 - 0 - 2 - 1 1,069 2026-03-06 13:43:55
247 Resistance [Aero Chord] 1,249,010 961 - 4 - 0 - 2 - 1 720 2026-03-06 13:41:53
47 Resistance [Aero Chord] 2,162,720 2,285 - 6 - 0 - 2 - 3 905 2026-03-06 13:40:31
258 Resistance [Aero Chord] 1,236,895 808 - 3 - 0 - 1 - 1 792 2026-03-06 13:37:25
6,780 Almost There [Oni] 834,945 588 - 9 - 0 - 3 - 0 510 2026-03-06 13:36:02
31 Sinfonia Regalis [FC] [PB] 2,886,000 1,857 - 6 - 0 - 0 - 0 1,863 2026-03-06 13:34:12
29 Red Sheets, White Lies [FC] [PB] 3,173,025 2,043 - 5 - 0 - 0 - 0 2,048 2026-03-06 13:31:33
166 Red Sheets, White Lies 117,415 76 - 1 - 0 - 2 - 2 76 2026-03-06 13:27:24
714 Finixe 1,539,350 994 - 7 - 1 - 1 - 1 991 2026-03-06 13:26:54
384 Extratone Pirates (Drunk Optimus Remix) 2,830,965 1,828 - 3 - 0 - 4 - 1 1,826 2026-03-06 13:24:27
137 Extratone Pirates (Drunk Optimus Remix) [FC] 2,910,700 1,868 - 12 - 0 - 0 - 0 1,880 2026-03-06 13:22:06
97 deathwish 2,166,285 1,392 - 6 - 1 - 0 - 1 1,399 2026-03-06 13:19:18
270 Boxel Adventure 41,025 24 - 3 - 0 - 0 - 0 27 2026-03-06 13:17:19
298 _.Pulse 3,045,875 2,081 - 11 - 0 - 2 - 4 1,899 2026-03-06 13:16:13
3,146 Schmollbluk 830,750 530 - 8 - 0 - 3 - 1 538 2026-03-06 13:13:57
130 Schmollbluk [FC] [PB] 2,548,060 1,639 - 6 - 0 - 0 - 2 1,645 2026-03-06 13:11:29
956 All your base are belong to ME 1,095,440 743 - 4 - 0 - 1 - 0 686 2026-03-06 13:08:37
155 All your base are belong to ME [PB] 3,826,165 3,542 - 17 - 2 - 2 - 5 1,874 2026-03-06 13:07:00
234 CirnoRHTL 627,355 399 - 7 - 0 - 0 - 1 406 2026-03-06 13:01:25
87 aballava(?) 347,665 234 - 1 - 0 - 1 - 0 219 2026-03-06 13:00:48
84 aballava(?) 922,445 597 - 2 - 1 - 21 - 0 600 2026-03-06 13:00:04
295 toromi hearts 2 2,181,575 1,780 - 8 - 1 - 2 - 3 1,201 2026-03-06 12:58:31
117 Rengoku-Purgatorium- [PB] 2,734,220 1,778 - 6 - 0 - 1 - 1 1,755 2026-03-06 12:56:06
1,691 Grist [Part 2] 1,339,040 859 - 6 - 0 - 0 - 3 865 2026-03-06 12:53:21
757 Dysnomia 765,420 493 - 8 - 0 - 3 - 0 493 2026-03-06 12:51:52
388 Cest What 1,602,220 1,039 - 4 - 0 - 1 - 1 1,030 2026-03-06 12:50:04
341 Cest What 2,137,305 1,372 - 7 - 2 - 1 - 1 1,381 2026-03-06 12:48:11
28 Empty Shell [FC] [PB] 5,177,430 3,337 - 4 - 0 - 0 - 1 3,341 2026-03-06 12:44:41
72 Empty Shell 2,110,550 2,097 - 3 - 1 - 2 - 3 957 2026-03-06 12:40:14
57 Death Opera 2,772,985 1,792 - 5 - 0 - 3 - 3 1,787 2026-03-06 12:35:51
29 Death Opera 3,424,915 2,260 - 13 - 0 - 2 - 2 2,179 2026-03-06 12:33:01
410 Super Soaker 1,408,015 909 - 5 - 0 - 1 - 0 907 2026-03-06 12:30:26
72 Stinger [FC] [PB] 3,139,730 2,024 - 2 - 0 - 0 - 1 2,026 2026-03-06 12:27:32
311 Paradoxical time leap trial 27,525 12 - 7 - 0 - 0 - 0 19 2026-03-06 12:25:06
3,490 grind2 462,860 297 - 2 - 0 - 0 - 2 299 2026-03-06 12:24:31
2,026 grind2 964,690 648 - 2 - 2 - 1 - 3 608 2026-03-06 12:23:26
6 working [FC] [PB] 3,385,020 2,179 - 6 - 0 - 0 - 4 2,185 2026-03-06 12:21:49
129 Mike French Hardcore Custom 1,252,155 957 - 12 - 3 - 2 - 2 723 2026-03-06 12:18:41
101 Extratone Pirates [FC] 2,246,085 1,445 - 5 - 0 - 0 - 2 1,450 2026-03-06 12:16:05
239 Thundersnail [1.3x] [FC] 997,630 642 - 2 - 0 - 0 - 1 644 2026-03-06 12:13:23
282 Thundersnail [1.3x] 819,790 641 - 2 - 0 - 1 - 0 467 2026-03-06 12:12:01
1,378 Thundersnail 409,440 264 - 2 - 0 - 1 - 0 264 2026-03-06 12:11:21
1 Thundersnail [1.2x] [AAA] [FC] 998,200 644 - 0 - 0 - 0 - 0 644 2026-03-06 12:10:50
96 Dedaism [1.2x] 2,933,795 1,906 - 3 - 0 - 1 - 1 1,885 2026-03-06 12:09:29
96 Dedaism [1.2x] 2,978,250 1,927 - 10 - 0 - 1 - 2 1,916 2026-03-06 12:06:33
114 Dedaism [1.2x] 1,018,250 654 - 3 - 1 - 1 - 1 658 2026-03-06 12:03:51
105 Dedaism [1.2x] 1,640,715 1,068 - 3 - 0 - 21 - 0 1,059 2026-03-06 12:02:21
97 Dedaism [1.2x] 2,897,510 1,868 - 6 - 0 - 8 - 3 1,871 2026-03-06 11:58:59
42 Dedaism [1.2x] [FC] 3,532,345 2,275 - 4 - 1 - 0 - 3 2,280 2026-03-06 11:53:01
46 Dedaism [1.2x] 2,521,765 2,274 - 5 - 0 - 1 - 0 1,270 2026-03-06 11:49:36
46 Dedaism [1.2x] 2,480,745 2,274 - 5 - 0 - 1 - 1 1,229 2026-03-06 11:44:38
61 Dedaism [1.2x] [FC] 3,529,910 2,266 - 13 - 1 - 0 - 1 2,280 2026-03-06 11:39:57
67 Dedaism [1.2x] 2,727,920 2,262 - 12 - 4 - 2 - 4 1,481 2026-03-06 11:36:32
69 Dedaism [1.2x] 2,431,355 2,251 - 25 - 2 - 2 - 3 1,187 2026-03-06 11:28:10
34 Dedaism [FC] 3,532,880 2,276 - 4 - 0 - 0 - 1 2,280 2026-03-06 11:25:00
349 Fotvaerk 392,830 249 - 4 - 2 - 1 - 1 255 2026-03-06 11:21:17
318 Gameshow Suitcase 1,163,050 918 - 11 - 1 - 3 - 0 656 2026-03-06 11:18:31
22 Rave Girls 1,487,635 1,218 - 5 - 0 - 2 - 1 817 2026-03-06 11:16:35
983 AiAe 1,110,215 718 - 3 - 0 - 21 - 0 721 2026-03-06 11:14:56
43 KATAMARI 1,775,625 1,454 - 8 - 1 - 1 - 1 974 2026-03-06 11:13:25
50 KATAMARI 1,434,300 919 - 8 - 0 - 1 - 2 927 2026-03-06 11:11:11
8,981 Blooddrunk [1.2x] 1,247,395 1,172 - 15 - 0 - 1 - 1 599 2026-03-05 12:52:10
2,581 DeVouR [1.2x] 425,270 268 - 8 - 0 - 1 - 1 276 2026-03-05 12:50:12
1 Buh [3x] [AAA] [FC] 209,250 135 - 0 - 0 - 0 - 0 135 2026-03-05 12:48:30
77,807 Eien Meikyu [2x] 97,650 63 - 0 - 0 - 0 - 0 63 2026-03-05 12:46:52
70,679 Driveway [Light] [2x] 265,050 171 - 0 - 0 - 0 - 0 171 2026-03-05 12:45:19
15,149 Song For The Nihonjins [1.5x] 1,523,375 982 - 1 - 0 - 0 - 0 983 2026-03-05 12:43:16
490 Song For The Nihonjins [2x] [FC] 2,209,710 1,424 - 2 - 0 - 0 - 2 1,426 2026-03-05 12:41:02
209 Radiata (The Quick Brown Fox 'UV' RMX) 1,431,525 1,243 - 44 - 1 - 4 - 2 737 2026-03-05 12:37:56
194 Radiata (The Quick Brown Fox 'UV' RMX) 2,059,855 1,346 - 38 - 1 - 3 - 1 1,310 2026-03-05 12:35:07
94 Tool-Assisted Speedcore (TQBF Frame Advance RMX) [PB] 3,863,870 3,503 - 43 - 1 - 2 - 2 1,926 2026-03-05 12:30:50
491 Tool-Assisted Speedcore (TQBF Frame Advance RMX) 1,758,915 1,514 - 16 - 7 - 5 - 1 923 2026-03-05 12:25:36
106 Tool-Assisted Speedcore (TQBF Frame Advance RMX) [PB] 3,232,105 3,492 - 49 - 2 - 6 - 11 1,300 2026-03-05 12:20:06
141 Tool-Assisted Speedcore (TQBF Frame Advance RMX) 2,752,010 3,470 - 58 - 6 - 15 - 6 832 2026-03-05 12:15:04
155 UR+ MusicEater LV99 1,022,570 823 - 10 - 2 - 6 - 4 569 2026-03-05 12:07:08
336 The Disappearance of Hatsune Miku -Theatrical Version- [PB] 2,251,000 1,903 - 48 - 0 - 9 - 3 1,194 2026-03-05 12:05:54
349 The Disappearance of Hatsune Miku -Theatrical Version- 2,717,605 1,891 - 65 - 0 - 4 - 4 1,661 2026-03-05 12:02:59
497 The Disappearance of Hatsune Miku -Theatrical Version- 1,668,615 1,843 - 77 - 0 - 13 - 9 638 2026-03-05 11:59:22
965 The Disappearance of Hatsune Miku -Theatrical Version- 2,264,560 1,634 - 34 - 6 - 2 - 10 1,357 2026-03-05 11:57:01
63 tarantula funk beats [PB] 1,754,265 1,831 - 39 - 4 - 5 - 9 738 2026-03-05 11:54:24
67 tarantula funk beats [PB] 1,805,380 1,819 - 50 - 4 - 6 - 9 793 2026-03-05 11:51:23
90 tarantula funk beats 1,122,550 1,193 - 52 - 0 - 6 - 2 454 2026-03-05 11:48:37
1,033 Chik Habit 761,575 479 - 15 - 0 - 0 - 0 494 2026-03-05 11:45:50
795 OWA Raged at Kurorak for Making OWA Raged at Skeletor 784,640 652 - 13 - 1 - 5 - 2 424 2026-03-05 11:43:45
796 OWA Raged at Kurorak for Making OWA Raged at Skeletor 656,990 652 - 7 - 1 - 5 - 2 298 2026-03-05 11:42:30
798 OWA Raged at Kurorak for Making OWA Raged at Skeletor 762,775 640 - 6 - 1 - 3 - 0 410 2026-03-05 11:41:19
200 99.9 (Eurobeat Remix) 1,570,865 1,402 - 44 - 3 - 24 - 3 795 2026-03-05 11:29:24
170 99.9 (Eurobeat Remix) 2,122,045 2,188 - 67 - 8 - 10 - 6 903 2026-03-05 11:27:26
165 99.9 (Eurobeat Remix) 2,294,925 2,305 - 61 - 6 - 9 - 7 1,013 2026-03-05 11:25:13
33 Breath After Breath [PB] 6,227,740 7,370 - 158 - 22 - 20 - 11 2,136 2026-03-05 11:21:49
62 Breath After Breath 4,438,335 5,774 - 235 - 14 - 34 - 11 1,208 2026-03-05 11:13:25
140 Breath After Breath 36,925 23 - 1 - 0 - 0 - 0 24 2026-03-05 11:07:24
84 Breath After Breath 2,061,420 2,210 - 108 - 4 - 16 - 2 821 2026-03-05 11:06:52
198 Piano x Forte x Scandal 4,031,805 2,594 - 9 - 0 - 1 - 3 2,603 2026-03-05 11:03:54
976 Overklock 1,308,080 841 - 3 - 1 - 1 - 2 845 2026-03-05 10:59:36
41,849 Flight of the Bumblebee [Rimsky-Korsakov] 629,255 406 - 13 - 0 - 2 - 0 403 2026-03-05 10:56:58
308 drivin'FTR 371,815 240 - 0 - 1 - 4 - 0 241 2026-03-05 10:55:51
241 drivin'FTR 1,254,915 809 - 1 - 0 - 1 - 0 810 2026-03-05 10:54:11
203 drivin'FTR 1,817,115 1,173 - 1 - 0 - 1 - 0 1,172 2026-03-05 10:51:20
239 drivin'FTR 1,317,915 848 - 3 - 0 - 1 - 0 851 2026-03-05 10:49:04
42 drivin'FTR 1,877,565 1,451 - 3 - 0 - 1 - 0 1,079 2026-03-05 10:47:13
252 drivin'FTR 1,076,425 692 - 3 - 0 - 0 - 0 695 2026-03-05 10:44:40
239 drivin'FTR 980,905 834 - 8 - 1 - 13 - 1 524 2026-03-05 10:42:37
301 99.9 (Eurobeat Remix) 279,530 229 - 88 - 0 - 18 - 2 135 2026-03-05 10:40:43
84 Sinfonia Regalis 1,396,110 922 - 7 - 1 - 3 - 2 888 2026-03-02 20:38:38
47 shule ya samaki 1,972,380 1,561 - 9 - 1 - 2 - 4 1,112 2026-03-02 20:36:57
137 Slash Dot Slash (Slim boy fat) 1,966,590 1,268 - 5 - 1 - 20 - 2 1,274 2026-03-02 20:35:07
117 Slash Dot Slash (Slim boy fat) 3,818,080 2,461 - 11 - 1 - 21 - 2 2,468 2026-03-02 20:33:09
18 KINGWORLD [1.2x] 1,972,470 2,066 - 63 - 3 - 4 - 4 820 2026-03-02 20:29:41
58 Kuusou Mesorogiwi [1.2x] 2,182,845 2,234 - 44 - 1 - 3 - 4 943 2026-03-02 20:26:59
90 Kuusou Mesorogiwi [1.2x] 1,640,250 1,070 - 13 - 1 - 22 - 3 1,055 2026-03-02 20:24:34
357 Ehhen Doyadosu? Tengujiman [1.2x] 1,451,610 1,556 - 33 - 1 - 4 - 4 588 2026-03-02 20:23:11
352 Real [1.2x] 1,290,020 1,110 - 14 - 6 - 2 - 2 676 2026-03-02 20:20:33
588 Real [1.2x] 1,345,890 1,057 - 10 - 2 - 4 - 4 763 2026-03-02 20:18:53
218 Panic! Pop'n! Picnic! [1.2x] 997,030 779 - 26 - 0 - 5 - 1 563 2026-03-02 20:17:16
65 Magical 8bit Tour v2 [1.2x] [FC] 2,584,745 1,662 - 6 - 1 - 0 - 3 1,669 2026-03-02 20:15:23
281 Grief & Malice [1.2x] 2,564,435 1,685 - 15 - 0 - 24 - 0 1,641 2026-03-02 20:12:44
335 Grief & Malice [1.2x] 1,132,420 727 - 9 - 1 - 22 - 7 737 2026-03-02 20:10:33
85 Dragon Castle [1.2x] 2,044,505 2,033 - 23 - 2 - 6 - 11 922 2026-03-02 20:09:21
222 Casino Fire Kotomi-chan [1.2x] 1,459,635 1,216 - 11 - 2 - 4 - 3 789 2026-03-02 20:06:51
163 !(Z)X(Z)! [1.2x] 1,030,955 958 - 20 - 1 - 8 - 1 501 2026-03-02 20:04:07
333 Crow's Ghost [1.2x] 3,528,410 2,280 - 42 - 6 - 1 - 8 2,263 2026-03-02 20:02:40
131 Caffeine [1.2x] 2,117,430 2,030 - 19 - 1 - 7 - 9 998 2026-03-02 19:59:25
507 Ubiquity [1.2x] 1,080,945 911 - 11 - 0 - 23 - 0 584 2026-03-02 19:56:36
30 The Harvest [1.2x] [FC] 2,716,495 1,747 - 6 - 1 - 0 - 3 1,754 2026-03-02 19:54:26
58 The Harvest [1.2x] 2,349,435 1,514 - 10 - 1 - 3 - 7 1,515 2026-03-02 19:52:18
815 WE EAT AT FIVE FIVE FIVE (guys) [1.2x] 1,270,670 1,084 - 10 - 2 - 1 - 4 672 2026-03-02 19:49:39
640 Reality [1.2x] [FC] 1,425,640 915 - 5 - 1 - 0 - 2 921 2026-03-02 19:47:38
266 Magical Higan Tour 2009 [1.2x] [FC] 2,397,370 1,537 - 11 - 1 - 0 - 3 1,549 2026-03-02 19:45:27
74 Lumpiang Shanghai Deluxe [1.2x] [FC] 1,748,750 1,125 - 4 - 0 - 0 - 5 1,129 2026-03-02 19:40:57
216 Just why [1.3x] [FC] 2,242,455 1,441 - 7 - 0 - 0 - 1 1,448 2026-03-02 19:37:55
405 Shatterscape (Bexarametric Remix) [1.3x] 1,426,210 1,276 - 16 - 0 - 3 - 3 721 2026-03-02 19:35:49
903 Star Gate [1.3x] 217,745 153 - 9 - 0 - 6 - 1 133 2026-03-02 19:33:54
79 LOVE THIS MOMENT [1.3x] 1,377,875 1,350 - 7 - 0 - 5 - 0 635 2026-03-02 19:32:37
179 Wake Up, Gladiator [1.3x] 1,583,650 1,620 - 1 - 1 - 2 - 3 693 2026-03-02 19:30:16
63 Zpace Invaderz [1.3x] [FC] 2,259,500 1,453 - 5 - 1 - 0 - 4 1,459 2026-03-02 19:27:51
75 Zpace Invaderz [1.3x] 1,630,290 1,449 - 7 - 1 - 2 - 1 832 2026-03-02 19:26:00
157 Blue [1.3x] [FC] 1,798,665 1,158 - 3 - 0 - 0 - 3 1,161 2026-03-02 19:23:51
375 Unborn Baby [1.3x] 400,850 438 - 7 - 1 - 3 - 5 159 2026-03-02 19:21:33
147 timer [1.3x] [FC] 1,689,160 1,085 - 5 - 1 - 0 - 1 1,091 2026-03-02 19:19:54
320 Pure Ruby [1.3x] [FC] 1,890,430 1,218 - 2 - 0 - 0 - 1 1,220 2026-03-02 19:17:33
247 Yellow Smile [1.3x] 2,070,390 1,362 - 9 - 3 - 1 - 2 1,319 2026-03-02 19:14:33
528 Heavenly Spores [1.3x] 1,869,505 1,631 - 10 - 1 - 1 - 2 970 2026-03-02 19:11:57
300 Treasure Planet [1.3x] 1,762,570 1,378 - 7 - 1 - 1 - 0 1,003 2026-03-02 19:09:34
1,156 Lawn Wake I [1.3x] 1,688,355 1,397 - 14 - 3 - 3 - 4 917 2026-03-02 19:06:44
266 DESTINY [orgt] [1.3x] 1,644,120 1,436 - 6 - 0 - 1 - 1 853 2026-03-02 19:04:10
198 Breakout [Heavy] [1.3x] 1,826,165 1,522 - 5 - 0 - 1 - 0 988 2026-03-02 19:01:13
1,088 Vertex BETA [1.3x] [FC] 2,717,460 1,745 - 10 - 0 - 0 - 2 1,755 2026-03-02 18:57:55
202 We Are The Vampires [1.3x] [FC] 1,666,915 1,073 - 3 - 0 - 0 - 3 1,076 2026-03-02 18:53:57
1 Lisrim [1.3x] [AAA] [FC] 2,028,950 1,309 - 0 - 0 - 0 - 0 1,309 2026-03-02 18:51:55
118 Time Files [1.3x] 1,415,070 1,201 - 8 - 0 - 2 - 3 753 2026-03-02 18:49:41
88 Szamar Madar v2 [1.3x] 1,597,405 1,464 - 3 - 0 - 2 - 0 792 2026-03-02 18:47:03
256 Stories Can Wait (Virtual Riot Remix) [1.3x] 1,481,335 1,217 - 5 - 0 - 1 - 4 811 2026-03-02 18:44:59
90 Starry Fate [1.3x] 1,918,625 1,393 - 10 - 1 - 1 - 1 1,150 2026-03-02 18:41:55
1,335 Purple [1.3x] 693,425 484 - 13 - 0 - 1 - 2 424 2026-03-02 18:39:31
1,393 Gruntilda's Final Battle [1.3x] 1,110,670 828 - 24 - 2 - 14 - 5 653 2026-03-02 18:36:46
1,275 Sleep [Part 1] [1.2x] 1,486,560 949 - 14 - 0 - 4 - 0 962 2026-03-02 18:28:43
632 Sleep [Part 2] [1.2x] 94,275 60 - 1 - 0 - 0 - 0 61 2026-03-02 18:27:20
2,377 Boot [1.2x] 1,347,445 870 - 8 - 1 - 1 - 0 867 2026-03-02 18:26:41
416 floating point (Drumcorps Remix) 720,820 583 - 4 - 0 - 3 - 0 400 2026-02-27 13:38:22
403 While Sleeping (The Big Sleep) 684,995 443 - 5 - 0 - 13 - 0 444 2026-02-27 13:37:15
378 The Bird's Snapshot Lifespan 651,485 418 - 2 - 1 - 0 - 1 421 2026-02-27 13:36:10
2,666 Magical 8bit Tour 1,654,235 1,105 - 9 - 0 - 3 - 3 1,045 2026-02-27 13:35:03
380 Rave 7 1,674,705 1,484 - 15 - 0 - 2 - 0 855 2026-02-27 13:33:23
60 where is my balls [PB] 2,972,780 2,450 - 7 - 1 - 2 - 4 1,624 2026-02-27 13:31:04
282 DIST SQUAD 1,197,540 1,141 - 32 - 4 - 3 - 5 562 2026-02-27 13:27:30
376 [line:epsilon] 1,082,780 692 - 8 - 0 - 0 - 1 700 2026-02-27 13:26:10
164 Mario Trap 990,475 816 - 18 - 1 - 1 - 1 537 2026-02-27 13:24:50
520 LOSHAXI 1,133,200 903 - 14 - 0 - 4 - 3 634 2026-02-27 13:23:24
66 Rave 3 2,078,355 1,476 - 7 - 0 - 1 - 3 1,265 2026-02-27 13:21:39
59 Miserable Bastard [FC] [PB] 2,030,910 1,307 - 4 - 0 - 0 - 2 1,311 2026-02-27 13:19:02
333 Take 1,911,335 1,230 - 9 - 0 - 2 - 1 1,233 2026-02-27 13:16:11
51 Celsus v2 [PB] 2,860,980 2,032 - 11 - 1 - 2 - 4 1,741 2026-02-27 13:12:02
9,796 Eclipse (Solar) 953,170 612 - 3 - 1 - 1 - 0 616 2026-02-27 13:09:38
313 Lyrith -Labyrinth Lilith- 2,332,355 1,499 - 7 - 0 - 0 - 1 1,506 2026-02-27 13:08:37
440 Lyrith -Labyrinth Lilith- 594,230 387 - 0 - 0 - 2 - 0 382 2026-02-27 13:06:20
72 Mezzotinto 1,279,655 1,133 - 9 - 0 - 3 - 2 655 2026-02-27 13:05:26
272 INSANE INFLAME 3,181,315 2,105 - 4 - 3 - 2 - 4 2,023 2026-02-27 13:03:32
54 Shuu no Hazama (Rainshower) [FC] [PB] 3,511,180 2,262 - 4 - 0 - 0 - 1 2,266 2026-02-27 12:58:36
762 grind4 813,510 521 - 8 - 0 - 4 - 0 526 2026-02-27 12:55:49
244 Extratone in a Perfect World 482,140 318 - 2 - 0 - 1 - 0 307 2026-02-27 12:55:12
58 Extratone in a Perfect World [FC] [PB] 2,070,220 1,331 - 4 - 2 - 0 - 2 1,337 2026-02-27 12:53:31
245 Delirium v2 419,445 270 - 1 - 0 - 1 - 1 271 2026-02-27 12:51:34
51 Delirium v2 [FC] [PB] 3,256,660 2,098 - 3 - 1 - 0 - 6 2,102 2026-02-27 12:50:29
28 A Battle I Absolutely Can't Lose ~ Kill the Nyanko [FC] [PB] 3,069,920 1,979 - 2 - 0 - 0 - 4 1,981 2026-02-27 12:47:11
84 A Battle I Absolutely Can't Lose ~ Kill the Nyanko 2,122,040 1,955 - 4 - 0 - 1 - 0 1,046 2026-02-27 12:44:26
191 Mario-chi Survivor [Heavy] 2,075,385 1,335 - 4 - 1 - 0 - 1 1,340 2026-02-27 12:41:24
29 Here We Go [FC] [PB] 1,864,080 1,201 - 2 - 0 - 0 - 1 1,203 2026-02-27 12:38:15
640 No Time For Sleep 355,840 232 - 3 - 1 - 2 - 1 228 2026-02-27 12:36:41
103 No Time For Sleep [FC] 944,810 603 - 8 - 0 - 0 - 2 611 2026-02-27 12:36:08
196 OTENAMI Hurricane 322,540 205 - 4 - 0 - 1 - 0 209 2026-02-27 12:34:51
24 OTENAMI Hurricane [FC] 2,544,275 1,639 - 3 - 0 - 0 - 0 1,642 2026-02-27 12:34:22
307 Paradoxical time leap trial 28,145 24 - 1 - 0 - 1 - 1 15 2026-02-27 12:32:17
102 ++ 1,635,140 1,803 - 10 - 0 - 4 - 1 642 2026-02-27 12:31:38
135 ++ 1,979,080 1,773 - 10 - 0 - 22 - 0 1,008 2026-02-27 12:29:12
26 crystallized [PB] 2,782,530 2,439 - 5 - 1 - 1 - 2 1,440 2026-02-27 12:25:57
131 crystallized 1,515,140 980 - 6 - 0 - 21 - 0 981 2026-02-27 12:22:42
1,639 Epileptic Crisis [Oni] 510,380 328 - 1 - 1 - 1 - 2 330 2026-02-27 12:21:12
173 Epileptic Crisis [Oni] 1,950,690 1,691 - 22 - 0 - 1 - 5 1,015 2026-02-27 12:19:47
924 Epileptic Crisis [Oni] 1,573,990 1,006 - 11 - 1 - 1 - 4 1,018 2026-02-27 12:17:46
1,270 Epileptic Crisis [Oni] 877,430 558 - 9 - 1 - 0 - 0 568 2026-02-27 12:16:23
126 Fireball v2 373,725 239 - 2 - 1 - 1 - 1 242 2026-02-27 12:14:22
102 Fireball v2 1,549,070 1,056 - 8 - 0 - 3 - 0 967 2026-02-27 12:12:56
656 Dysnomia 917,500 587 - 6 - 0 - 0 - 0 593 2026-02-27 12:11:24
882 Rengoku-Purgatorium- 1,950,540 1,252 - 7 - 1 - 0 - 2 1,260 2026-02-27 12:10:13
446 Rengoku-Purgatorium- 2,661,015 1,743 - 11 - 0 - 2 - 2 1,700 2026-02-27 12:08:03
26 Hopeful Frontier!!! [PB] 2,407,520 1,845 - 4 - 0 - 1 - 1 1,392 2026-02-27 12:01:26
45 Upshift [PB] 2,954,905 2,138 - 5 - 0 - 1 - 3 1,778 2026-02-27 11:57:58
264 Boxel Adventure 109,460 74 - 0 - 0 - 4 - 0 70 2026-02-27 11:55:10
86 Boxel Adventure 1,739,610 1,751 - 3 - 1 - 4 - 4 777 2026-02-27 11:53:12
214 Boxel Adventure 1,232,875 802 - 6 - 1 - 3 - 0 791 2026-02-27 11:51:04
403 Verse IV 1,094,770 776 - 12 - 0 - 1 - 1 665 2026-02-27 11:49:24
97 !!!Chaos Time!!! [Cut Edition] [PB] 2,663,680 1,744 - 14 - 0 - 1 - 3 1,701 2026-02-27 11:47:42
110 !!!Chaos Time!!! [Cut Edition] [PB] 2,544,925 1,744 - 11 - 0 - 4 - 3 1,584 2026-02-27 11:45:29
105 Trap Funk [1.2x] 2,147,590 2,208 - 22 - 2 - 3 - 2 928 2026-02-27 11:39:16
21 Trap Funk [FC] [PB] 3,463,425 2,232 - 3 - 0 - 0 - 0 2,235 2026-02-27 11:34:20
1 COUNTING CARDS [1.4x] [AAA] [FC] 1,912,700 1,234 - 0 - 0 - 0 - 0 1,234 2026-02-27 11:30:06
59 Trap Funk [FC] 3,460,340 2,221 - 14 - 0 - 0 - 3 2,235 2026-02-27 00:31:33
68 Trap Funk [FC] 3,459,645 2,220 - 13 - 2 - 0 - 2 2,235 2026-02-27 00:22:30
126 System Doctor 2,979,240 2,068 - 8 - 0 - 4 - 6 1,841 2026-02-25 21:47:54
731 System Doctor 2,991,480 1,921 - 14 - 2 - 3 - 5 1,932 2026-02-25 21:44:42
96 System Doctor 3,071,815 2,068 - 10 - 1 - 1 - 4 1,932 2026-02-25 21:41:06
1,589 System Doctor 1,954,080 1,271 - 0 - 0 - 3 - 2 1,256 2026-02-25 21:37:47
875 Heterochromia Iridis 1,530,510 1,471 - 22 - 0 - 5 - 2 717 2026-02-25 21:35:02
52 Metro [FC] [PB] 3,827,545 2,459 - 11 - 2 - 0 - 2 2,472 2026-02-25 21:31:24
131 Sinthasomphone [PB] 1,438,940 1,881 - 27 - 3 - 10 - 5 400 2026-02-25 21:25:03
229 Sinthasomphone 1,689,785 1,590 - 34 - 1 - 16 - 8 811 2026-02-25 21:21:58
261 Sinthasomphone 1,092,580 1,170 - 18 - 2 - 6 - 6 446 2026-02-25 21:19:32
135 Sinthasomphone 1,579,005 1,873 - 39 - 0 - 9 - 4 541 2026-02-25 21:17:43
233 Sinthasomphone 1,200,630 1,551 - 36 - 2 - 11 - 1 341 2026-02-25 21:15:29
158 UR+ MusicEater LV99 895,830 716 - 8 - 2 - 4 - 2 501 2026-02-25 21:10:15
160 UR+ MusicEater LV99 965,715 632 - 9 - 0 - 4 - 6 617 2026-02-25 21:09:10
339 The Disappearance of Hatsune Miku -Theatrical Version- [PB] 1,860,975 1,899 - 52 - 3 - 6 - 4 804 2026-02-25 21:08:10
350 The Disappearance of Hatsune Miku -Theatrical Version- 1,700,945 1,900 - 49 - 0 - 11 - 6 646 2026-02-25 21:05:43
583 Powerflux 1,685,275 2,060 - 104 - 9 - 44 - 9 537 2026-02-25 21:03:05
208 Wanderflux [PB] 2,044,835 2,800 - 189 - 16 - 34 - 24 463 2026-02-25 21:00:45
432 Wanderflux 1,583,720 1,473 - 78 - 10 - 17 - 8 757 2026-02-25 20:57:43
104 Revenge (ReeK's "Dude, What's A Genre?" Remix) [PB] 3,110,990 3,745 - 85 - 1 - 13 - 8 1,032 2026-02-25 20:54:13
208 Revenge (ReeK's "Dude, What's A Genre?" Remix) 2,307,885 2,105 - 74 - 1 - 7 - 5 1,132 2026-02-25 20:49:29
576 Tool-Assisted Speedcore (TQBF Frame Advance RMX) 1,431,330 911 - 36 - 0 - 2 - 0 921 2026-02-25 20:46:31
2,620 Jamais Vu 368,180 233 - 6 - 0 - 2 - 0 239 2026-02-25 20:45:03
2,250 Jamais Vu 435,040 342 - 8 - 0 - 4 - 1 246 2026-02-25 20:44:22
1,848 Jamais Vu 553,160 556 - 8 - 2 - 3 - 1 246 2026-02-25 20:23:12
212 Finding Her Not 1,948,735 1,458 - 9 - 0 - 2 - 1 1,145 2026-02-25 20:22:03
102 Finding Her Not 3,116,190 3,001 - 30 - 0 - 5 - 3 1,459 2026-02-25 20:20:08
87 Finding Her Not 3,817,690 3,011 - 20 - 2 - 3 - 2 2,157 2026-02-25 20:16:33
88 ETERNAL DRAIN v2 2,384,540 1,667 - 58 - 0 - 4 - 1 1,453 2026-02-25 20:12:34
66 Safely Admitting Jumpstyle Has Not Improved My Life In Any Way [PB] 3,892,455 2,991 - 46 - 1 - 4 - 3 2,236 2026-02-25 20:10:05
318 Shindeiru 1,512,975 1,400 - 24 - 1 - 2 - 3 737 2026-02-25 20:06:53
47 Stop Saying We Sound Like Dragonforce 5,523,160 4,500 - 48 - 6 - 7 - 10 3,037 2026-02-25 20:04:39
140 Gamma Stop Giving Me Hard Bags 4,394,715 3,806 - 17 - 0 - 4 - 1 2,298 2026-02-25 19:57:53
162 Gamma Stop Giving Me Hard Bags 5,163,310 3,338 - 6 - 2 - 1 - 2 3,326 2026-02-25 19:52:58
104 CirnoRHTL [FC] 3,584,185 2,305 - 9 - 0 - 0 - 2 2,314 2026-02-25 19:48:27
69 Mickey's Dick Smasher 1,176,245 1,375 - 26 - 1 - 7 - 2 415 2026-02-25 19:45:21
67 MEGAERA [FC] [PB] 2,526,160 1,615 - 18 - 0 - 0 - 2 1,633 2026-02-25 19:43:01
99 Nhelv [FC] [PB] 3,411,280 2,188 - 14 - 2 - 0 - 4 2,204 2026-02-25 19:40:02
50 The Ballad of Mona Lisa [PB] 3,283,055 2,224 - 9 - 0 - 2 - 0 2,058 2026-02-25 19:36:41
56 The Ballad of Mona Lisa 3,432,490 2,218 - 14 - 2 - 1 - 3 2,209 2026-02-25 19:33:41
11,861 Eclipse (Solar) 678,625 437 - 1 - 0 - 0 - 0 438 2026-02-25 19:30:57
73 Empty Shell 2,474,040 1,749 - 4 - 0 - 3 - 4 1,512 2026-02-25 19:30:13
74 Empty Shell 2,107,750 1,459 - 6 - 0 - 1 - 2 1,304 2026-02-25 19:27:34
78 Diabolic Swing [1.2x] 1,572,640 1,874 - 56 - 4 - 8 - 10 529 2026-02-25 19:22:42
75 Diabolic Swing [1.2x] 1,418,385 1,903 - 50 - 1 - 9 - 14 361 2026-02-25 19:19:02
90 Diabolic Swing [1.2x] 2,097,770 1,511 - 42 - 2 - 6 - 4 1,257 2026-02-25 19:16:37
29 Restoration Lake [SR] 2,962,155 4,226 - 743 - 22 - 230 - 19 504 2026-02-25 19:14:03
11 Winnipeg As Mandatory Scat Feed [SR] 4,904,675 5,549 - 74 - 7 - 9 - 11 1,835 2026-02-25 19:07:28
16 The Dreaming Tree [PB] 3,444,830 3,807 - 70 - 2 - 10 - 14 1,335 2026-02-25 18:58:22
16 The Dreaming Tree [PB] 2,763,045 3,769 - 97 - 2 - 21 - 9 670 2026-02-25 18:52:22
26 The Dreaming Tree [SR] 1,859,380 1,497 - 51 - 3 - 10 - 3 1,025 2026-02-25 18:47:15
18 Magnetic Rave Headache 628,115 490 - 7 - 0 - 1 - 0 357 2026-02-25 18:44:08
7 Magnetic Rave Headache [PB] 1,238,800 1,107 - 12 - 0 - 1 - 2 627 2026-02-25 18:40:01
7 Magnetic Rave Headache [SR] 1,481,685 1,105 - 13 - 0 - 2 - 1 871 2026-02-25 18:38:04
40 Unit:Squash! 1,055,275 680 - 1 - 0 - 0 - 0 681 2026-02-25 18:36:21
38 Unit:Squash! [PB] 1,670,350 1,076 - 2 - 0 - 0 - 0 1,078 2026-02-25 18:26:11
39 Unit:Squash! [PB] 794,875 512 - 1 - 0 - 0 - 0 513 2026-02-25 18:24:12
39 Unit:Squash! [PB] 784,025 505 - 1 - 0 - 0 - 0 506 2026-02-25 18:22:58
39 Unit:Squash! [SR] 759,225 493 - 1 - 0 - 20 - 0 494 2026-02-25 18:21:59
1 Buh [AAA] [FC] [PB] 209,250 135 - 0 - 0 - 0 - 0 135 2026-02-25 18:19:10
73 Buh [PB] 181,055 116 - 1 - 0 - 0 - 1 117 2026-02-25 18:17:32
81 Buh 120,570 78 - 0 - 0 - 1 - 1 78 2026-02-25 18:15:46
80 Buh [SR] 121,690 80 - 0 - 0 - 1 - 0 78 2026-02-25 18:14:32
279 You Show 2,502,610 1,714 - 27 - 3 - 2 - 3 1,553 2026-02-25 15:08:01
270 Exam Cram [Oni] 2,124,250 1,518 - 52 - 0 - 3 - 1 1,276 2026-02-25 15:04:31
151 Unconnected. 371,330 239 - 4 - 2 - 1 - 1 239 2026-02-25 15:02:18
92 Unconnected. 1,556,425 1,402 - 18 - 1 - 2 - 3 781 2026-02-25 15:01:34
767 Finixe 1,289,445 830 - 2 - 1 - 2 - 2 833 2026-02-25 14:59:16
1,739 A Quick Death 1,628,130 1,202 - 6 - 0 - 2 - 0 966 2026-02-25 14:57:59
1,531 Serious Shit 1,136,290 767 - 10 - 0 - 1 - 0 712 2026-02-25 14:55:54
118 _.Pulse [FC] [PB] 3,518,905 2,263 - 8 - 1 - 0 - 0 2,272 2026-02-25 14:53:35
576 _.Pulse 1,143,525 732 - 7 - 0 - 0 - 0 739 2026-02-25 14:51:13
33 My Great Escape [FC] [PB] 2,780,460 1,784 - 12 - 0 - 0 - 2 1,796 2026-02-25 14:46:09
37 My Great Escape [PB] 2,524,380 1,781 - 10 - 2 - 3 - 5 1,543 2026-02-25 14:38:54
43 My Great Escape 2,275,775 1,766 - 27 - 0 - 3 - 1 1,298 2026-02-25 14:36:25
307 GHOST 3,171,685 2,058 - 11 - 0 - 4 - 0 2,038 2026-02-25 14:33:41
64 GHOST [PB] 3,389,410 2,732 - 9 - 1 - 2 - 5 1,885 2026-02-25 14:30:52
1,558 Call me it. (500 Tortures) 1,668,135 1,153 - 13 - 0 - 5 - 2 1,032 2026-02-25 14:26:55
512 Call me it. (500 Tortures) 2,202,215 2,078 - 24 - 1 - 4 - 5 1,054 2026-02-25 14:24:55
180 Star of the COME ON!! 3,064,170 2,062 - 29 - 3 - 3 - 7 1,923 2026-02-25 14:22:05
256 Koi No Sibou Flag 1,420,755 924 - 7 - 0 - 1 - 3 911 2026-02-25 14:19:36
73 Japan Style Breakcore - 2 340,540 224 - 6 - 0 - 1 - 0 216 2026-02-25 14:18:12
72 Japan Style Breakcore - 2 1,455,870 955 - 2 - 0 - 3 - 0 931 2026-02-25 14:16:52
1,625 Extratone Pirates (Drunk Optimus Remix) 1,313,025 843 - 5 - 0 - 0 - 0 848 2026-02-25 14:15:09
115 deathwish 885,020 608 - 2 - 0 - 3 - 0 551 2026-02-25 14:14:03
93 deathwish 2,668,865 1,713 - 11 - 0 - 1 - 0 1,724 2026-02-25 14:11:45
79 deathwish 4,306,365 2,795 - 16 - 1 - 4 - 5 2,766 2026-02-25 14:08:49
101 deathwish 1,270,785 1,172 - 3 - 0 - 2 - 1 626 2026-02-25 14:05:22
99 deathwish 1,581,940 1,366 - 12 - 0 - 2 - 2 828 2026-02-25 14:03:49
1 End of an Empire [1.15x] [AAA] [FC] 2,422,650 1,563 - 0 - 0 - 0 - 0 1,563 2026-02-25 13:54:37
11 End of an Empire [1.15x] [FC] 2,422,100 1,561 - 2 - 0 - 0 - 0 1,563 2026-02-25 13:51:57
609 Inspector Gadget [Powerglove] [1.2x] 1,875,145 1,775 - 22 - 3 - 4 - 4 894 2026-02-25 13:49:26
41 Donkey Punch [Oni] [1.2x] 1,046,310 1,098 - 8 - 0 - 9 - 0 443 2026-02-25 13:46:27
140 Cynthia (With Moonlight) [1.2x] 2,687,615 1,757 - 9 - 0 - 7 - 2 1,721 2026-02-25 13:44:42
47 Kuusou Mesorogiwi [1.1x] 3,485,165 2,268 - 11 - 2 - 1 - 3 2,235 2026-02-25 13:41:31
127 Panic! Pop'n! Picnic! [1.1x] 1,897,560 1,781 - 16 - 0 - 1 - 4 914 2026-02-25 13:37:38
211 Casino Fire Kotomi-chan [1.1x] [FC] 1,905,925 1,214 - 19 - 0 - 0 - 0 1,233 2026-02-25 13:35:00
241 Breakbeat Acid [1.1x] 829,435 1,027 - 28 - 1 - 7 - 0 259 2026-02-25 13:32:41
589 Breakbeat Acid [1.1x] 10,300 5 - 2 - 0 - 0 - 0 7 2026-02-25 13:30:40
82 Magical 8bit Tour v2 [1.1x] 2,202,930 1,655 - 12 - 0 - 2 - 0 1,290 2026-02-25 13:30:05
104 Magical 8bit Tour v2 [1.1x] 2,328,185 1,649 - 16 - 3 - 1 - 1 1,417 2026-02-25 13:27:33
42 Magical 8bit Tour v2 [FC] 2,586,105 1,666 - 3 - 0 - 0 - 1 1,669 2026-02-25 13:24:16
455 ElectroMashcore 1,703,875 1,086 - 15 - 2 - 2 - 2 1,103 2026-02-25 13:21:14
459 ElectroMashcore 1,650,165 1,056 - 11 - 0 - 2 - 2 1,067 2026-02-25 13:19:28
523 ElectroMashcore 993,790 639 - 6 - 0 - 1 - 0 641 2026-02-25 13:17:56
539 ElectroMashcore 618,870 516 - 1 - 1 - 4 - 1 336 2026-02-25 13:16:56
569 ElectroMashcore 404,810 357 - 4 - 0 - 2 - 1 208 2026-02-25 13:16:00
300 Panic! Pop'n! Picnic! 501,925 327 - 1 - 0 - 20 - 0 328 2026-02-25 13:15:02
428 Sayonara Cosmonaut 848,570 533 - 17 - 1 - 1 - 0 551 2026-02-24 07:51:24
20 NASTYWERKKKK! [FC] [SR] 2,684,225 1,726 - 7 - 0 - 0 - 0 1,733 2026-02-24 07:49:57
297 Requiem -Dies irae- 992,045 1,112 - 5 - 0 - 3 - 0 380 2026-02-24 07:39:40
77 Dimensional Doors [FC] 1,446,875 931 - 3 - 0 - 0 - 0 934 2026-02-24 07:36:44
41 Deception 3,248,315 3,300 - 23 - 0 - 3 - 4 1,428 2026-02-22 22:20:38
313 DIST SQUAD 1,398,625 962 - 24 - 1 - 13 - 5 867 2026-02-22 22:16:34
1,138 Happy Arnold=) 86,460 51 - 5 - 1 - 0 - 1 57 2026-02-22 22:15:21
578 Happy Arnold=) 1,142,495 727 - 13 - 0 - 3 - 0 740 2026-02-22 22:14:53
83 PhonDrome! [Oni] [PB] 2,283,170 1,795 - 8 - 2 - 1 - 4 1,294 2026-02-22 22:09:31
381 Rave 7 2,234,775 1,483 - 16 - 1 - 1 - 1 1,415 2026-02-22 22:05:29
135 UR+ MusicEater LV99 2,222,620 2,108 - 31 - 1 - 4 - 6 1,056 2026-02-22 22:03:13
85 UR+ MusicEater LV99 2,214,230 2,971 - 39 - 1 - 8 - 6 572 2026-02-22 22:00:20
229 Break The Silence 2,570,145 2,736 - 51 - 4 - 12 - 9 1,055 2026-02-22 21:53:23
123 cold (Kurorak's Bootleg) [PB] 2,475,550 1,732 - 14 - 2 - 3 - 4 1,520 2026-02-22 21:49:52
212 Staple on Smile [PB] 2,184,025 1,942 - 35 - 0 - 2 - 4 1,107 2026-02-22 21:46:19
929 Staple on Smile 986,150 1,080 - 31 - 5 - 5 - 5 385 2026-02-22 21:43:46
256 Staple on Smile 2,104,600 1,929 - 43 - 3 - 4 - 5 1,033 2026-02-22 21:42:04
257 Staple on Smile 2,038,835 1,931 - 40 - 1 - 7 - 5 968 2026-02-22 21:37:46
99 floating point (Drumcorps Remix) 2,479,470 2,660 - 34 - 2 - 9 - 10 1,010 2026-02-22 21:33:46
116 ETERNAL DRAIN v2 708,550 525 - 26 - 0 - 1 - 2 413 2026-02-22 21:30:10
73 ETERNAL DRAIN v2 2,134,010 2,170 - 126 - 6 - 11 - 3 909 2026-02-22 21:29:15
62 Grains 1,217,385 1,821 - 455 - 22 - 142 - 24 134 2026-02-22 21:25:59
29 Cortex Charger [PB] 1,640,840 2,527 - 877 - 79 - 289 - 47 96 2026-02-22 21:21:39
157 Fireball [PB] 1,314,060 1,734 - 233 - 15 - 42 - 26 309 2026-02-22 21:17:34
489 Death Piano [PB] 2,485,835 2,308 - 107 - 6 - 32 - 20 1,197 2026-02-22 21:13:40
568 Death Piano 1,932,205 2,260 - 156 - 3 - 34 - 16 657 2026-02-22 21:10:11
254 The Little Devil's Heart-Pounding Amusement Park [Oni] 2,584,485 2,021 - 34 - 3 - 8 - 5 1,466 2026-02-22 21:06:15
107 The Little Devil's Heart-Pounding Amusement Park [Oni] 2,593,795 2,525 - 57 - 0 - 5 - 4 1,191 2026-02-22 21:01:56
82 Radiata (The Quick Brown Fox 'UV' RMX) [PB] 2,626,000 2,721 - 69 - 1 - 8 - 5 1,113 2026-02-22 20:57:31
87 Radiata (The Quick Brown Fox 'UV' RMX) [PB] 2,243,265 2,719 - 65 - 2 - 13 - 7 734 2026-02-22 20:53:01
190 Radiata (The Quick Brown Fox 'UV' RMX) 1,446,270 1,400 - 62 - 4 - 6 - 7 661 2026-02-22 20:49:18
159 Schwerkraft 1,285,370 979 - 42 - 4 - 9 - 3 738 2026-02-22 20:47:28
230 Neko Nadetai 766,545 654 - 43 - 6 - 17 - 2 400 2026-02-22 20:45:31
125 Neko Nadetai [PB] 1,315,695 1,786 - 107 - 4 - 23 - 6 311 2026-02-22 20:44:09
125 Neko Nadetai [PB] 1,394,250 1,790 - 98 - 8 - 24 - 10 390 2026-02-22 20:41:28
737 Powerflux 1,497,465 1,359 - 62 - 1 - 13 - 3 737 2026-02-22 20:39:19
776 Powerflux 1,232,920 1,253 - 41 - 1 - 8 - 4 535 2026-02-22 20:37:49
293 Reluctantly Accepting Temporary Overexhaustion [PB] 1,348,515 1,529 - 58 - 5 - 8 - 9 494 2026-02-22 20:34:31
359 Reluctantly Accepting Temporary Overexhaustion 1,341,135 1,510 - 67 - 4 - 19 - 6 498 2026-02-22 20:32:35
113 PEACE BREAKER [PB] 2,593,995 3,410 - 174 - 15 - 22 - 18 677 2026-02-22 20:28:18
115 PEACE BREAKER [PB] 2,805,600 3,401 - 179 - 11 - 30 - 24 895 2026-02-22 20:23:20
109 System Doctor 2,982,500 2,067 - 11 - 1 - 1 - 6 1,843 2026-02-22 20:19:03
2,163 System Doctor 591,550 380 - 2 - 0 - 0 - 0 382 2026-02-22 20:14:56
154 do i smile? [FC] [PB] 3,269,945 2,099 - 13 - 0 - 0 - 4 2,112 2026-02-22 20:04:47
131 Rationalist 2,859,185 2,041 - 1 - 0 - 2 - 1 1,737 2026-02-22 20:01:20
42 End of an Empire [1.15x] 746,440 485 - 0 - 0 - 1 - 0 480 2026-02-22 19:58:37
40 End of an Empire [1.15x] 1,304,825 841 - 1 - 0 - 0 - 0 842 2026-02-22 19:57:19
11 End of an Empire [1.15x] [FC] 2,422,375 1,562 - 1 - 0 - 0 - 0 1,563 2026-02-22 19:54:59
543 Famicom Selecta [1.3x] 1,323,440 1,149 - 10 - 0 - 4 - 1 690 2026-02-22 19:49:03
314 Personal Discourse [1.3x] 330,965 224 - 1 - 2 - 2 - 0 208 2026-02-22 19:46:47
1,610 Grocery Escape Plan [1.3x] 825,795 537 - 6 - 1 - 4 - 1 530 2026-02-22 19:45:52
1,576 Face in the Gutter [1.3x] 610,615 403 - 3 - 2 - 3 - 2 389 2026-02-22 19:43:13
133 E-Lectixilent [1.3x] 1,842,315 1,395 - 5 - 0 - 1 - 0 1,074 2026-02-22 19:42:14
271 Dimensional Doors [1.3x] 367,460 238 - 8 - 0 - 2 - 1 235 2026-02-22 19:40:08
52 Creature of Habit [1.3x] [FC] 2,535,010 1,634 - 1 - 1 - 0 - 1 1,636 2026-02-22 19:38:47
2,678 Aim Burst [1.3x] 751,570 704 - 7 - 1 - 5 - 3 364 2026-02-22 19:35:33
659 Clocked [1.3x] 1,059,835 890 - 24 - 1 - 4 - 4 565 2026-02-22 19:34:21
71 Chapter IV (Chair) [1.3x] 1,412,500 900 - 14 - 0 - 1 - 2 914 2026-02-22 19:32:46
1,094 Felix^3 [1.3x] 940,065 720 - 6 - 1 - 2 - 1 543 2026-02-22 19:31:09
2,728 Clockwork [Breakbeat Heartbeat] [1.3x] 892,700 799 - 8 - 0 - 3 - 1 452 2026-02-22 19:30:08
30 DREAM SNATCHER [1.3x] [FC] 3,718,840 2,396 - 4 - 0 - 0 - 3 2,400 2026-02-22 19:24:33
68 Thornmail [1.3x] [FC] 3,047,200 1,961 - 6 - 0 - 0 - 0 1,967 2026-02-22 19:21:03
185 Sonic Vision [1.3x] 1,361,120 1,163 - 16 - 0 - 3 - 0 718 2026-02-22 19:17:04
314 Poppin' Shower [1.3x] 1,525,295 1,293 - 3 - 0 - 2 - 3 814 2026-02-22 19:13:04
356 Happy Meal [1.3x] 1,078,970 1,084 - 5 - 1 - 2 - 2 482 2026-02-22 19:09:27
74 Character Select - Super Mario Bros. 2 Extended [1.3x] [FC] 1,944,405 1,252 - 3 - 0 - 0 - 1 1,255 2026-02-22 19:07:04
95 Character Select - Super Mario Bros. 2 Extended [1.3x] 1,822,700 1,248 - 6 - 0 - 1 - 2 1,135 2026-02-22 19:05:17
389 i wanna kiss the moon [1.3x] [FC] 938,940 601 - 5 - 1 - 0 - 2 607 2026-02-22 19:02:44
69 Making Christmas [1.3x] [FC] 2,841,875 1,831 - 3 - 0 - 0 - 0 1,834 2026-02-22 18:59:25
140 Yellow Smile [1.3x] [FC] 2,130,150 1,371 - 4 - 0 - 0 - 0 1,375 2026-02-22 18:56:02
123 Progressive jikuu shoujo! Urashima Taroko-chan! [1.3x] [FC] 1,866,650 1,201 - 4 - 0 - 0 - 0 1,205 2026-02-22 18:46:19
184 Progressive jikuu shoujo! Urashima Taroko-chan! [1.3x] 1,478,165 1,200 - 3 - 0 - 2 - 2 818 2026-02-22 18:44:06
270 Party Starter [1.3x] 717,130 466 - 8 - 0 - 1 - 3 459 2026-02-22 18:41:12
195 New Fluttershy (MONSTER MIX) [1.3x] [FC] 1,365,245 877 - 3 - 2 - 0 - 2 882 2026-02-22 18:40:10
311 Starry Sky (TANUKI BOOTLEG) [1.3x] 1,309,315 1,209 - 11 - 0 - 2 - 2 642 2026-02-22 18:38:05
100 Good L_ck (Yo_'re F_cked) [1.3x] 2,836,765 2,577 - 3 - 0 - 1 - 5 1,419 2026-02-22 18:35:37
282 Dreadnought [Heavy] [1.3x] 2,006,415 1,486 - 5 - 2 - 1 - 3 1,188 2026-02-22 18:30:13
1,114 Amnolys [1.3x] 1,163,270 752 - 8 - 2 - 2 - 1 748 2026-02-22 18:27:50
650 Landscape [1.3x] 316,620 198 - 6 - 2 - 0 - 2 206 2026-02-22 18:26:03
82 Find a Way Out [1.3x] [FC] 2,345,305 1,509 - 5 - 0 - 0 - 1 1,514 2026-02-22 18:25:13
243 hatsu miku time [1.3x] [FC] 1,476,950 943 - 12 - 0 - 0 - 0 955 2026-02-22 18:22:14
81 Smoked Turkey Rag [1.3x] [FC] 2,469,855 1,591 - 3 - 0 - 0 - 1 1,594 2026-02-22 18:19:08
334 timer [1.3x] 1,455,825 935 - 8 - 1 - 2 - 3 940 2026-02-22 18:16:49
173 timer [1.3x] 1,206,200 1,083 - 4 - 2 - 2 - 2 610 2026-02-22 18:15:32
530 timer [1.3x] 4,650 3 - 0 - 0 - 0 - 0 3 2026-02-22 18:13:32
530 timer [1.3x] 6,200 4 - 0 - 0 - 0 - 0 4 2026-02-22 18:12:46
176 timer [1.3x] 1,158,145 1,079 - 11 - 0 - 1 - 1 562 2026-02-22 18:11:28
352 timer [1.3x] 1,360,095 873 - 8 - 1 - 1 - 0 878 2026-02-22 18:10:02
189 timer [1.3x] 1,170,435 1,076 - 12 - 1 - 2 - 5 576 2026-02-22 18:08:48
325 For FFR [1.3x] [FC] 1,341,475 863 - 3 - 0 - 0 - 0 866 2026-02-22 18:07:08
318 Men & Machines [Redemption] [1.3x] 1,338,600 964 - 4 - 0 - 2 - 4 808 2026-02-22 18:04:57
1,538 Thundersnail [1.3x] 274,755 181 - 3 - 0 - 2 - 0 175 2026-02-22 18:02:56
677 Cloud Nine [1.3x] 1,320,400 887 - 3 - 1 - 1 - 1 832 2026-02-22 18:01:57
320 Clockwork [MSI] [1.3x] [FC] 1,383,050 889 - 4 - 0 - 0 - 0 893 2026-02-22 18:00:13
904 Annihilator Method [1.3x] 1,254,090 862 - 6 - 0 - 2 - 2 779 2026-02-22 17:58:44
323 Annihilator Method [1.3x] 1,329,000 997 - 7 - 1 - 1 - 1 779 2026-02-22 17:57:01
1,142 Annihilator Method [1.3x] 378,720 321 - 5 - 1 - 4 - 1 202 2026-02-22 17:55:09
623 FREEDOM DiVE 2,210,465 2,011 - 42 - 1 - 23 - 3 1,100 2026-02-22 14:17:41
247 Apocaliptix 57,380 44 - 0 - 0 - 22 - 0 40 2026-02-22 14:14:42
201 Apocaliptix 530,430 527 - 17 - 1 - 23 - 1 243 2026-02-22 14:14:19
55 Progressive Temporal Corruption 1,914,145 1,711 - 11 - 0 - 3 - 0 971 2026-02-22 14:12:44
122 Progressive Temporal Corruption 36,375 25 - 3 - 0 - 20 - 0 28 2026-02-22 14:10:02
32 i made a mistake [FC] 3,273,675 2,103 - 11 - 0 - 0 - 0 2,114 2026-02-22 14:08:54
88 i made a mistake 43,125 31 - 1 - 0 - 20 - 0 32 2026-02-22 14:06:18
41 i made a mistake 2,674,675 2,084 - 27 - 0 - 3 - 1 1,522 2026-02-22 14:05:59
87 i made a mistake 90,810 59 - 0 - 0 - 2 - 1 59 2026-02-22 14:03:19
131 Grief & Malice 3,239,315 3,187 - 17 - 2 - 4 - 4 1,483 2026-02-22 14:02:15
451 Flight of the Bumble Bee [MonstDeath] 1,702,065 1,272 - 15 - 0 - 2 - 2 999 2026-02-22 13:57:23
909 Balloon Fight [Heavy] 473,670 365 - 22 - 0 - 23 - 0 274 2026-02-22 13:55:32
472 JULIA 1,790,005 1,279 - 14 - 1 - 1 - 2 1,083 2026-02-22 13:54:22
265 Kyrie 1,232,040 896 - 2 - 0 - 1 - 0 739 2026-02-22 13:51:41
59 Xecus [FC] 2,047,275 1,320 - 1 - 0 - 0 - 0 1,321 2026-02-22 13:49:40
254 Xecus 271,970 241 - 2 - 0 - 23 - 0 146 2026-02-22 13:47:17
207 Xecus 991,760 852 - 14 - 2 - 18 - 11 525 2026-02-22 13:46:03
91 ZOOQUU [FC] 1,425,485 919 - 0 - 1 - 0 - 1 920 2026-02-21 14:25:18
1 Captain Murasa's Ass Anchor [AAA] [FC] 1,246,200 804 - 0 - 0 - 0 - 0 804 2026-02-21 14:22:19
79 NEWALONE 1,690,500 1,089 - 2 - 0 - 0 - 0 1,091 2026-02-21 14:20:31
1 Summer Colours Arch [AAA] [FC] 1,339,200 864 - 0 - 0 - 0 - 0 864 2026-02-21 14:17:52
460 Iced Innocence [1.5x] 840,840 770 - 6 - 0 - 1 - 0 416 2026-02-21 14:15:36
611 Adult's Sketchbook [1.5x] 1,062,500 866 - 2 - 0 - 1 - 2 586 2026-02-21 14:13:56
1,261 Szamar Madar [1.5x] 1,520,915 1,086 - 7 - 0 - 1 - 0 922 2026-02-21 14:11:54
225 Bad Apple!! [1.5x] 1,368,505 1,467 - 1 - 0 - 2 - 0 562 2026-02-21 14:08:56
1,308 Bad Apple!! [1.4x] 1,553,585 1,000 - 2 - 1 - 0 - 1 1,003 2026-02-21 14:06:35
1,250 Over the Frail Dream [1.4x] 928,145 781 - 7 - 0 - 1 - 1 497 2026-02-21 14:04:15
6,916 Over the Frail Dream [1.5x] 711,660 560 - 20 - 0 - 22 - 1 405 2026-02-21 14:02:58
14,896 Over the Frail Dream [1.6x] 204,755 128 - 5 - 0 - 0 - 1 133 2026-02-21 14:02:09
474 Kodomoraibu [1.6x] 1,159,980 775 - 11 - 1 - 1 - 2 731 2026-02-21 14:01:45
1,359 Wish (For FFR) [1.6x] 1,080,130 1,120 - 4 - 0 - 3 - 2 464 2026-02-21 14:00:12
1,373 Wish (For FFR) [1.6x] 1,137,220 1,119 - 5 - 1 - 2 - 2 521 2026-02-21 13:58:25
12,173 Wish (For FFR) [1.6x] 564,365 367 - 3 - 0 - 1 - 0 362 2026-02-21 13:56:22
2,134 Wish (For FFR) [1.7x] 973,345 1,107 - 15 - 0 - 5 - 4 362 2026-02-21 13:55:15
755 Wish (For FFR) [1.5x] 1,382,990 1,126 - 0 - 0 - 1 - 0 764 2026-02-21 13:53:37
12,512 Wish (For FFR) [2x] 349,985 292 - 29 - 0 - 5 - 2 183 2026-02-21 13:52:09
98 Pokemon Johto [2.3x] 1,099,310 1,291 - 80 - 2 - 15 - 10 372 2026-02-21 13:51:14
85 Pokemon Johto [2.2x] 1,514,670 1,329 - 52 - 2 - 5 - 7 771 2026-02-21 13:49:37
77 Pokemon Johto [2.1x] 1,609,155 1,350 - 35 - 0 - 3 - 2 858 2026-02-21 13:47:35
62 Pokemon Johto [2x] 1,755,710 1,371 - 13 - 1 - 3 - 2 999 2026-02-21 13:45:49
43 Pokemon Johto [1.9x] [FC] 2,149,785 1,383 - 4 - 1 - 0 - 1 1,388 2026-02-21 13:43:58
37 Pokemon Johto [1.7x] [FC] 2,150,850 1,386 - 2 - 0 - 0 - 0 1,388 2026-02-21 13:42:11
1 Pokemon Johto [1.5x] [AAA] [FC] 2,151,400 1,388 - 0 - 0 - 0 - 0 1,388 2026-02-21 13:39:52
1,161 Indigo 701,170 590 - 0 - 0 - 1 - 1 377 2026-02-21 13:28:49
129 Pleiades East West Mass Rapid Transit Line 782,790 562 - 0 - 0 - 1 - 0 474 2026-02-21 13:25:05
1,742 Come With Me [Virtual Riot] 17,050 11 - 0 - 0 - 0 - 0 11 2026-02-21 13:22:21
470 Circle 717,100 461 - 2 - 0 - 0 - 0 463 2026-02-21 13:21:50
1 Circle [AAA] [FC] 1,013,700 654 - 0 - 0 - 0 - 0 654 2026-02-21 13:19:51
16,288 Outside the Skies 316,440 205 - 0 - 0 - 1 - 0 204 2026-02-21 12:39:44
1 Let Me Be Your Pirate [AAA] [FC] 919,150 593 - 0 - 0 - 0 - 0 593 2026-02-21 12:34:46
290 Snowdin Town [FC] 533,180 344 - 0 - 0 - 0 - 1 344 2026-02-21 12:25:06
1 Colossus [AAA] [FC] 612,250 395 - 0 - 0 - 0 - 0 395 2026-02-21 12:21:49
45 shule ya samaki 2,493,110 1,679 - 12 - 0 - 2 - 1 1,567 2026-02-20 16:05:10
295 Lolipon [1.2x] 439,035 276 - 8 - 1 - 0 - 1 285 2026-02-20 15:55:36
311 Magnum [1.2x] 1,554,200 1,504 - 12 - 0 - 4 - 3 725 2026-02-20 15:54:19
1,901 Magnum [1.15x] 702,460 454 - 0 - 0 - 4 - 0 454 2026-02-20 15:51:34
14 End of an Empire [1.15x] 1,696,790 1,562 - 0 - 0 - 1 - 0 838 2026-02-20 15:39:40
1,016 Gate Openerz [1.2x] 1,052,565 791 - 31 - 4 - 7 - 3 611 2026-02-20 15:37:00
300 Galaxy in Toybox [Heavy] [1.2x] 1,732,720 1,631 - 27 - 5 - 3 - 5 829 2026-02-20 15:35:15
508 Casino Fire Kotomi-chan [1.2x] 817,135 586 - 33 - 6 - 5 - 1 487 2026-02-20 15:33:07
157 zZz [1.2x] 2,084,260 1,536 - 14 - 0 - 1 - 4 1,236 2026-02-20 15:31:57
99 Dancecore Moldovenesc [1.2x] 1,623,455 1,819 - 23 - 0 - 4 - 4 618 2026-02-20 15:29:25
1,988 WE EAT AT FIVE FIVE FIVE (guys) [1.2x] 1,298,260 947 - 23 - 1 - 3 - 2 772 2026-02-20 15:26:56
76 The Harvest [1.2x] 443,715 280 - 11 - 0 - 1 - 0 287 2026-02-20 15:24:41
34 The Harvest [1.2x] 2,427,305 1,744 - 9 - 0 - 1 - 3 1,466 2026-02-20 15:23:32
632 Pretty Girls With Mental Disorders [1.2x] 964,730 715 - 24 - 0 - 26 - 3 573 2026-02-20 15:20:18
61 MEGA MEGA CUTiE BREAKiN'!!!!!!!!z [1.2x] [FC] 3,128,055 2,014 - 5 - 0 - 0 - 1 2,019 2026-02-20 15:16:01
115 MEGA MEGA CUTiE BREAKiN'!!!!!!!!z [1.2x] 2,490,715 2,009 - 5 - 0 - 5 - 3 1,386 2026-02-20 15:13:07
132 MEGA MEGA CUTiE BREAKiN'!!!!!!!!z [1.2x] 2,714,690 2,003 - 12 - 0 - 4 - 1 1,611 2026-02-20 15:10:25
74 Diabolic Swing [1.2x] 1,725,140 1,889 - 67 - 3 - 4 - 8 669 2026-02-20 15:06:47
75 Diabolic Swing [1.2x] 1,668,145 1,854 - 97 - 2 - 10 - 12 625 2026-02-20 15:03:49
218 Mahou no Oshigoto [1.2x] 1,794,370 1,631 - 6 - 0 - 1 - 1 896 2026-02-20 14:59:14
154 Enkan No Kotowari [1.2x] [FC] 2,397,730 1,542 - 6 - 0 - 0 - 1 1,548 2026-02-20 14:56:49
1 Crow Solace [1.2x] [AAA] [FC] 2,016,550 1,301 - 0 - 0 - 0 - 0 1,301 2026-02-20 14:53:52
1,232 Chronostasis [1.2x] 1,199,590 776 - 4 - 0 - 1 - 0 772 2026-02-20 14:51:43
155 Chronostasis [1.2x] [FC] 2,265,015 1,459 - 2 - 1 - 0 - 2 1,462 2026-02-20 14:50:23
651 Progressive jikuu shoujo! Urashima Taroko-chan! [1.2x] 1,269,040 814 - 7 - 1 - 2 - 1 820 2026-02-20 14:47:33
297 dr1 [1.2x] [FC] 1,077,130 690 - 6 - 0 - 0 - 1 696 2026-02-20 14:45:45
413 Fried Eggs In My Ear [1.2x] 1,369,005 953 - 3 - 0 - 3 - 2 845 2026-02-20 14:44:23
348 Fried Eggs In My Ear [1.2x] 1,102,455 955 - 3 - 0 - 2 - 0 577 2026-02-20 14:42:41
107 SHI*O*KA*RA [1.2x] [FC] 1,707,550 1,100 - 2 - 0 - 0 - 0 1,102 2026-02-20 14:40:03
258 Poppin' Shower [1.2x] [FC] 2,010,485 1,293 - 5 - 0 - 0 - 2 1,298 2026-02-20 14:36:37
354 Give It All [1.2x] 1,366,515 914 - 9 - 0 - 2 - 2 862 2026-02-20 14:34:51
7,850 Exciting Hyper Highspeed Star [1.2x] 873,420 796 - 7 - 1 - 14 - 1 438 2026-02-20 14:33:24
57 Character Select - Super Mario Bros. 2 Extended [1.2x] [FC] 1,944,975 1,254 - 1 - 0 - 0 - 0 1,255 2026-02-20 14:32:07
189 Hello (Luke Da Duke Remix) [1.2x] 1,958,315 1,336 - 3 - 0 - 1 - 0 1,223 2026-02-20 14:29:43
526 Captain Murasa's Ass Anchor [1.2x] [FC] 1,244,530 798 - 6 - 0 - 0 - 1 804 2026-02-20 14:26:51
213 Cirno's Perfect Math Class [1.2x] [FC] 1,920,135 1,238 - 1 - 0 - 0 - 2 1,239 2026-02-20 14:25:24
57 NEWALONE [1.2x] [FC] 1,699,250 1,093 - 4 - 0 - 0 - 0 1,097 2026-02-20 14:22:46
495 Cold Breath [1.2x] [FC] 1,339,650 861 - 4 - 0 - 0 - 0 865 2026-02-20 14:19:56
2,123 Poppin' Shower [1.2x] 173,230 113 - 6 - 2 - 2 - 3 110 2026-02-20 14:17:47
18 End of an Empire [1.15x] [FC] 2,420,285 1,556 - 5 - 2 - 0 - 0 1,563 2026-02-19 22:23:11
38 End of an Empire [1.15x] 705,920 467 - 1 - 1 - 4 - 1 450 2026-02-19 22:20:37
40 End of an Empire [1.15x] 88,020 57 - 0 - 0 - 1 - 1 57 2026-02-19 22:18:52
20 End of an Empire [1.15x] 1,901,985 1,554 - 7 - 0 - 2 - 1 1,046 2026-02-19 22:17:43
9 End of an Empire [FC] [SR] 2,422,100 1,561 - 2 - 0 - 0 - 0 1,563 2026-02-19 22:14:17
119 Chaos Time the DARK 332,975 214 - 1 - 0 - 0 - 0 215 2026-02-19 22:11:28
96 Chaos Time the DARK 1,953,670 1,259 - 2 - 0 - 1 - 1 1,261 2026-02-19 22:10:30
101 Chaos Time the DARK 1,667,230 1,075 - 2 - 0 - 5 - 1 1,077 2026-02-19 22:08:08
89 Chaos Time the DARK 2,273,025 1,464 - 3 - 0 - 0 - 0 1,467 2026-02-19 22:03:36
105 Chaos Time the DARK 1,151,100 741 - 2 - 0 - 0 - 0 743 2026-02-19 21:57:33
104 Chaos Time the DARK 1,322,600 850 - 4 - 0 - 0 - 0 854 2026-02-19 21:55:55
108 Chaos Time the DARK 820,035 527 - 3 - 0 - 2 - 1 530 2026-02-19 21:54:24
108 Chaos Time the DARK 668,030 431 - 0 - 0 - 0 - 1 431 2026-02-19 21:48:42
180 8bit Adventurer [FC] 2,596,150 1,670 - 6 - 0 - 0 - 0 1,676 2026-02-19 21:47:17
1,103 8bit Adventurer 1,429,800 1,258 - 14 - 0 - 3 - 1 735 2026-02-19 21:44:10
109 Chaos Time the DARK 637,480 408 - 4 - 0 - 0 - 1 412 2026-02-19 21:40:52
123 Chaos Time the DARK 6,200 4 - 0 - 0 - 0 - 0 4 2026-02-19 21:40:09
201 Escape [1.2x] 1,161,445 731 - 23 - 0 - 3 - 0 754 2026-02-19 16:30:52
34 Cub Cub Lion Heart [1.2x] 2,253,325 2,395 - 15 - 0 - 3 - 6 933 2026-02-19 16:29:17
423 Gentleman (Areia Remix) [1.2x] 995,045 650 - 21 - 0 - 7 - 3 634 2026-02-19 16:26:26
1,130 Caffeine [1.2x] 94,815 58 - 4 - 1 - 4 - 0 63 2026-02-19 16:24:39
554 Pretty Girls With Mental Disorders [1.2x] 1,201,020 1,302 - 41 - 3 - 8 - 2 476 2026-02-19 16:07:37
181 Resistance 4 [1.2x] 3,020,800 2,387 - 12 - 0 - 1 - 2 1,705 2026-02-19 16:05:10
424 Galacta Knight [1.2x] 1,518,085 1,501 - 40 - 3 - 5 - 4 683 2026-02-19 16:01:32
963 Jamais Deux [1.2x] 872,840 821 - 22 - 0 - 12 - 2 419 2026-02-19 15:59:22
274 Vast Universe [1.2x] 3,782,185 2,425 - 17 - 2 - 1 - 2 2,444 2026-02-19 15:57:15
182 Return to Fire [1.2x] 3,179,010 2,439 - 8 - 0 - 2 - 1 1,836 2026-02-19 15:53:54
512 C204 [1.2x] 1,086,240 1,203 - 12 - 2 - 12 - 5 425 2026-02-19 15:47:19
10,293 The Adventures Of Lolo [1.2x] 264,060 245 - 19 - 1 - 3 - 2 125 2026-02-19 15:45:04
72 Himetype [1.2x] [FC] 2,414,955 1,549 - 11 - 0 - 0 - 1 1,560 2026-02-19 15:41:02
88 Himetype [1.2x] 1,544,445 1,545 - 12 - 1 - 2 - 2 692 2026-02-19 15:38:26
9,168 Frictional Nevada [1.2x] 554,490 353 - 6 - 0 - 1 - 0 359 2026-02-19 15:36:21
5,147 Frictional Nevada [1.2x] 982,850 871 - 10 - 0 - 3 - 1 502 2026-02-19 15:35:22
668 Frictional Nevada [1.2x] 1,576,900 1,314 - 9 - 1 - 1 - 1 852 2026-02-19 15:33:44
10,411 Frictional Nevada [1.2x] 324,950 208 - 2 - 0 - 0 - 0 210 2026-02-19 15:32:09
102 Exothermic (Overheat Remix) [1.2x] [FC] 2,156,500 1,388 - 4 - 0 - 0 - 0 1,392 2026-02-19 15:30:08
58 Cutter [1.2x] 2,633,060 1,695 - 15 - 1 - 1 - 3 1,697 2026-02-19 15:28:07
37 Metal Invasion [1.2x] [FC] 3,443,825 2,221 - 1 - 0 - 0 - 0 2,222 2026-02-19 15:24:21
57 Cris Fortress [1.2x] [FC] 2,079,825 1,341 - 1 - 0 - 0 - 0 1,342 2026-02-19 15:20:48
1 All Hands [1.2x] [AAA] [FC] 2,148,300 1,386 - 0 - 0 - 0 - 0 1,386 2026-02-19 15:17:41
327 Bibbidi Poopidi Scoop [1.2x] [FC] 871,825 560 - 3 - 0 - 0 - 0 563 2026-02-19 15:14:23
473 Bibbidi Poopidi Scoop [1.2x] [FC] 870,430 555 - 8 - 0 - 0 - 1 563 2026-02-19 15:13:01
1,264 Neurotoxin [1.2x] 1,107,295 849 - 11 - 0 - 2 - 3 638 2026-02-19 15:12:12
74 Change Yourself [Standard] [1.2x] [FC] 1,441,225 929 - 1 - 0 - 0 - 0 930 2026-02-19 15:10:22
88 Shade of Gloria [1.2x] [FC] 2,027,125 1,307 - 1 - 0 - 0 - 0 1,308 2026-02-19 15:08:11
157 Shade of Gloria [1.2x] 1,577,890 1,301 - 6 - 0 - 1 - 0 861 2026-02-19 15:05:36
284 Finder [1.2x] 1,021,540 686 - 2 - 0 - 1 - 0 644 2026-02-19 15:02:52
1,979 Iced Innocence [1.2x] 533,575 339 - 9 - 0 - 1 - 2 345 2026-02-19 15:01:09
533 Iced Innocence [1.2x] 927,720 766 - 10 - 0 - 1 - 1 504 2026-02-19 15:00:18
2,546 J'ai Envie de Plaisir X2 994,960 641 - 6 - 0 - 20 - 2 647 2026-02-17 19:52:27
114 Fireball v2 758,390 483 - 9 - 1 - 9 - 0 493 2026-02-17 19:50:05
57 Fireball v2 1,792,515 1,703 - 22 - 1 - 4 - 0 851 2026-02-17 19:48:04
73 Japan Style Breakcore - 2 165,370 104 - 4 - 0 - 3 - 0 108 2026-02-17 19:45:13
255 Koi No Sibou Flag 1,173,995 924 - 9 - 0 - 2 - 3 664 2026-02-17 19:44:28
321 Illegal Trap 917,360 591 - 10 - 2 - 21 - 2 596 2026-02-17 19:42:31
209 Illegal Trap 1,762,840 2,021 - 32 - 0 - 27 - 7 651 2026-02-17 19:39:01
156 Illegal Trap 2,177,635 2,256 - 49 - 0 - 8 - 8 926 2026-02-17 19:36:04
281 Koi No Sibou Flag 1,205,230 789 - 2 - 2 - 14 - 2 775 2026-02-17 19:33:13
79 GHOST 2,572,575 2,727 - 12 - 3 - 2 - 6 1,070 2026-02-17 19:31:06
82 GHOST 3,537,285 2,722 - 20 - 1 - 1 - 3 2,035 2026-02-17 19:27:26
475 GHOST 777,650 503 - 0 - 4 - 20 - 1 507 2026-02-17 19:24:19
1,988 Extratone Pirates (Drunk Optimus Remix) 617,040 395 - 4 - 0 - 1 - 0 399 2026-02-17 19:23:12
110 deathwish 974,325 771 - 2 - 1 - 1 - 1 550 2026-02-17 19:21:51
114 deathwish 1,089,430 706 - 2 - 2 - 21 - 1 707 2026-02-17 19:20:16
83 deathwish 2,586,540 2,539 - 13 - 1 - 24 - 5 1,194 2026-02-17 19:18:55
40 deathwish 4,179,330 2,970 - 19 - 1 - 1 - 7 2,541 2026-02-17 19:15:21
264 Boxel Adventure 113,290 70 - 4 - 0 - 1 - 0 74 2026-02-17 19:11:56
85 Boxel Adventure 1,929,940 1,747 - 10 - 0 - 2 - 2 967 2026-02-17 19:11:08
1,331 where is my balls 1,342,260 1,182 - 7 - 1 - 22 - 0 697 2026-02-17 19:08:18
1,427 G e n g a o z o 455,940 294 - 2 - 0 - 1 - 0 294 2026-02-17 19:06:14
1,256 G e n g a o z o 987,320 636 - 5 - 1 - 19 - 1 642 2026-02-17 19:05:40
961 G e n g a o z o 1,544,635 1,156 - 10 - 1 - 3 - 2 907 2026-02-17 19:04:40
822 G e n g a o z o 2,002,505 1,904 - 16 - 1 - 23 - 1 958 2026-02-17 19:02:49
296 G e n g a o z o 2,822,945 2,847 - 31 - 4 - 5 - 5 1,250 2026-02-17 18:59:55
804 OWA Raged at Kurorak for Making OWA Raged at Skeletor 887,255 625 - 13 - 2 - 10 - 4 543 2026-02-17 18:56:20
1,121 Happy Arnold=) 98,530 59 - 5 - 1 - 1 - 2 65 2026-02-17 18:54:07
369 Happy Arnold=) 1,579,035 1,472 - 23 - 4 - 3 - 9 764 2026-02-17 18:53:34
5,054 Rave 7 646,030 412 - 5 - 1 - 0 - 0 418 2026-02-17 18:51:35
425 Rave 7 1,758,050 1,479 - 19 - 1 - 2 - 3 940 2026-02-17 18:49:47
2,359 Jamais Vu 420,570 312 - 12 - 0 - 1 - 1 246 2026-02-17 18:47:01
880 Ant IDM [1.2x] 1,481,745 1,261 - 41 - 0 - 26 - 1 785 2026-02-17 18:44:15
1,354 Reality [1.2x] 818,345 889 - 25 - 2 - 5 - 2 324 2026-02-17 18:41:49
3,152 Gunkienen Tarusuigin [1.2x] 143,505 102 - 11 - 0 - 2 - 0 85 2026-02-17 18:40:30
268 Elif and the Night of Twilight -Called- [1.2x] [FC] 2,152,685 1,370 - 23 - 0 - 0 - 7 1,393 2026-02-17 18:39:36
84 The Alchemist of Twilight [1.2x] 2,183,265 1,617 - 13 - 0 - 2 - 2 1,291 2026-02-17 18:37:33
154 Erase Me [1.3x] 1,435,410 924 - 6 - 2 - 21 - 2 932 2026-02-17 18:35:19
59 Erase Me [1.2x] [FC] 3,662,860 2,360 - 3 - 1 - 0 - 1 2,364 2026-02-17 18:34:05
346 Sleep [Part 1] [1.2x] 2,190,810 2,051 - 17 - 1 - 3 - 2 1,059 2026-02-17 18:30:16
174 Gentleman (Areia Remix) [1.2x] 1,328,565 1,102 - 22 - 1 - 2 - 1 717 2026-02-17 18:27:39
246 Policy In The Sky! [Oni] [1.4x] 947,140 656 - 25 - 1 - 5 - 2 581 2026-02-17 18:25:52
102 Philosopher King [1.3x] 722,395 709 - 25 - 0 - 11 - 1 329 2026-02-17 18:24:14
429 Gotta Catch 'Em All [1.3x] 3,023,995 2,446 - 19 - 2 - 2 - 1 1,674 2026-02-17 18:22:49
473 Crow Solace [1.3x] 1,115,745 1,279 - 19 - 0 - 3 - 0 408 2026-02-17 18:19:49
209 Chronostasis [1.3x] 2,195,865 1,456 - 5 - 0 - 1 - 0 1,394 2026-02-17 18:16:58
559 Electric Butterfly [1.3x] 1,561,630 1,646 - 19 - 1 - 3 - 1 652 2026-02-17 18:14:22
610 Electric Butterfly [1.3x] 2,165,705 1,641 - 23 - 4 - 1 - 4 1,257 2026-02-17 18:12:08
328 YATA [1.3x] [FC] 1,711,795 1,094 - 11 - 2 - 0 - 2 1,107 2026-02-17 18:09:45
275 Resurrection Spell [1.3x] 2,397,035 1,553 - 8 - 1 - 1 - 3 1,541 2026-02-17 18:05:50
1,955 Resurrection Spell [1.3x] 19,820 13 - 0 - 0 - 1 - 1 13 2026-02-17 18:03:39
39 WELCOME TO MOTOWN PARK [1.3x] 1,653,120 1,237 - 4 - 0 - 1 - 1 972 2026-02-17 18:03:01
449 DRAGONLADY [1.3x] 692,910 883 - 14 - 0 - 5 - 2 205 2026-02-17 18:01:05
63 Zpace Invaderz [1.3x] [FC] 2,259,540 1,453 - 5 - 1 - 0 - 2 1,459 2026-02-17 17:59:39
363 Pokamen Party [1.3x] 1,465,645 1,462 - 21 - 2 - 4 - 5 657 2026-02-17 17:57:20
55 Lifeline [Christian Gisondi] [1.3x] 1,720,420 1,522 - 24 - 0 - 4 - 2 878 2026-02-17 17:55:27
108 Lifeline [Christian Gisondi] [1.3x] 18,600 12 - 0 - 0 - 0 - 0 12 2026-02-17 17:53:04
1,539 Carol of the Bells [1.3x] 1,135,455 868 - 28 - 5 - 6 - 3 652 2026-02-17 17:51:42
215 NEO GRAVITY (Cranky Remix) (-RS2018 edit-) [1.3x] 1,909,900 1,576 - 22 - 0 - 3 - 1 1,038 2026-02-17 17:49:36
2,016 Heavenly Spores [1.3x] 1,137,270 752 - 7 - 1 - 1 - 0 722 2026-02-17 17:46:56
626 Heavenly Spores [1.3x] 1,796,795 1,621 - 20 - 1 - 1 - 0 900 2026-02-17 17:45:43
297 Yellow Smile [1.3x] 1,543,975 1,355 - 17 - 0 - 3 - 1 795 2026-02-17 17:40:39
326 Goatstep [1.3x] 1,370,065 1,101 - 3 - 0 - 1 - 0 764 2026-02-17 17:38:31
1,955 Goatstep [1.3x] 314,480 201 - 4 - 0 - 7 - 0 205 2026-02-17 17:36:44
1,183 Dandelion Sparkle!! [1.3x] 916,745 797 - 9 - 2 - 7 - 1 478 2026-02-17 17:35:56
864 Dandelion Sparkle!! [1.3x] 1,348,135 1,080 - 24 - 1 - 8 - 2 750 2026-02-17 17:34:05
190 Dandelion Sparkle!! [1.2x] [FC] 1,880,600 1,210 - 4 - 0 - 0 - 0 1,214 2026-02-17 17:32:12
343 Ambient Angels [1.2x] [FC] 1,977,250 1,274 - 2 - 0 - 0 - 0 1,276 2026-02-17 17:28:57
485 Ambient Angels [1.2x] 1,824,115 1,272 - 3 - 0 - 1 - 0 1,124 2026-02-17 17:14:24
1,146 SigSig [1.2x] 1,257,830 856 - 7 - 1 - 3 - 1 786 2026-02-17 17:12:20
103 Rite On Time 1,015,985 650 - 5 - 2 - 0 - 0 657 2026-02-17 17:10:39
1,262 SigSig [1.2x] 1,157,935 745 - 3 - 0 - 2 - 1 748 2026-02-17 17:08:09
1,416 SigSig [1.2x] 915,500 589 - 2 - 0 - 0 - 0 591 2026-02-17 17:06:38
1,847 SigSig [1.2x] 331,355 214 - 1 - 0 - 2 - 0 214 2026-02-17 17:04:10
1,154 SigSig [1.2x] 1,329,030 842 - 20 - 0 - 5 - 1 862 2026-02-17 16:59:08
54 Wicked Nasty! [1.5x] 1,402,925 1,398 - 34 - 1 - 4 - 7 626 2026-02-15 20:47:10
39 Wicked Nasty! [1.3x] 1,938,505 1,429 - 7 - 0 - 1 - 3 1,151 2026-02-15 20:45:09
164 Tonight [1.7x] 1,379,180 1,389 - 29 - 5 - 6 - 8 609 2026-02-15 20:41:33
423 Tonight [1.6x] 877,005 565 - 1 - 0 - 0 - 1 566 2026-02-15 20:39:26
9,224 Survive [1.9x] 737,920 706 - 19 - 1 - 2 - 2 345 2026-02-15 20:37:06
296 The Impresario [2x] 4,121,855 2,771 - 31 - 0 - 2 - 5 2,590 2026-02-15 20:34:56
142 Excite Bike [Oni] 167,925 138 - 5 - 0 - 1 - 2 91 2026-02-15 20:26:49
1,224 Try To Star 1,089,375 702 - 1 - 0 - 0 - 0 703 2026-02-15 20:21:51
58 The Time Vampire 5,776,035 3,901 - 26 - 1 - 2 - 5 3,624 2026-02-15 20:10:06
66 The Ballad of Mona Lisa 3,023,490 2,199 - 30 - 2 - 4 - 4 1,807 2026-02-15 20:01:39
46 Cull [Oni] 1,830,185 1,687 - 17 - 0 - 4 - 5 899 2026-02-15 19:58:10
68 Koi No Sibou Flag 2,799,490 2,982 - 13 - 1 - 4 - 0 1,157 2026-02-15 19:53:19
94 Mario Trap 1,641,905 1,085 - 31 - 0 - 1 - 3 1,037 2026-02-15 19:47:35
201 Mario Trap 150,350 97 - 0 - 0 - 0 - 0 97 2026-02-15 19:46:06
256 LOSHAXI 1,318,165 1,306 - 26 - 1 - 4 - 5 594 2026-02-15 19:43:48
81 HeadXplit [PB] 3,347,835 2,481 - 24 - 1 - 1 - 3 1,977 2026-02-15 19:39:34
51 Red Sheets, White Lies [FC] [PB] 3,171,775 2,041 - 4 - 3 - 0 - 2 2,048 2026-02-15 19:36:19
138 Red Sheets, White Lies 1,517,100 975 - 7 - 3 - 20 - 2 985 2026-02-15 19:32:58
115 Rave 3 1,995,055 1,467 - 14 - 1 - 2 - 4 1,185 2026-02-15 19:29:54
16 Breakbeats Saying Sorry [PB] 2,721,765 2,008 - 22 - 1 - 2 - 6 1,612 2026-02-15 19:26:05
122 Excuse My Rudeness, but Could You Please RIP? (t+pazolite Remix) [PB] 3,220,880 2,615 - 7 - 1 - 1 - 2 1,781 2026-02-15 19:22:39
214 Counter Clockwise Chant Pattern [FC] 2,200,770 1,407 - 14 - 2 - 0 - 2 1,423 2026-02-15 19:17:32
54 SHINE!! [PB] 5,250,600 4,486 - 6 - 0 - 1 - 2 2,782 2026-02-15 19:12:48
91 Chronomia [PB] 2,723,675 2,183 - 5 - 0 - 1 - 2 1,522 2026-02-15 19:07:06
104 Tactical Railroad 2,781,290 2,313 - 17 - 3 - 2 - 4 1,505 2026-02-15 19:03:31
44 Redemption Arp 3,146,595 3,113 - 16 - 1 - 3 - 4 1,431 2026-02-15 18:58:37
77 one way to hannover 1,324,705 848 - 11 - 0 - 12 - 0 859 2026-02-15 18:54:36
43 how things went wrong [PB] 1,799,400 1,388 - 5 - 1 - 1 - 6 1,035 2026-02-15 18:52:07
152 FACTORY_RESET 1,830,315 1,342 - 16 - 3 - 1 - 2 1,088 2026-02-15 18:47:47
116 Happy Ending (Kkrusty's We Ready Remix) 1,400,785 1,241 - 10 - 3 - 2 - 3 716 2026-02-15 18:45:20
63 cafe terrace at dusk 1,357,140 1,231 - 10 - 0 - 2 - 2 678 2026-02-15 18:42:57
74 A Battle I Absolutely Can't Lose ~ Kill the Nyanko 3,017,645 1,962 - 14 - 1 - 4 - 6 1,936 2026-02-15 18:39:14
65 Japan Style Breakcore - 2 2,151,565 2,007 - 23 - 2 - 2 - 5 1,042 2026-02-15 18:35:48
175 Japan Style Breakcore!!! 2,987,150 2,220 - 14 - 0 - 2 - 4 1,763 2026-02-15 18:32:23
37 Rationalist [FC] 3,281,245 2,113 - 4 - 1 - 0 - 3 2,118 2026-02-15 18:25:34
127 Shut Your Mouth [1.5x] 1,590,745 1,538 - 33 - 0 - 7 - 3 738 2026-02-15 18:21:36
778 Saffron City [1.5x] 859,025 868 - 43 - 2 - 7 - 7 372 2026-02-15 18:19:16
44 The Pepsiman Pepsi Jam [1.5x] 2,577,190 2,273 - 30 - 0 - 7 - 2 1,321 2026-02-15 18:15:42
100 Frozen One [1.5x] 1,659,825 1,696 - 17 - 2 - 2 - 7 723 2026-02-15 18:11:16
87 Frozen One [1.4x] [FC] 2,657,310 1,705 - 9 - 3 - 0 - 4 1,717 2026-02-15 18:08:52
51 Frozen One [1.3x] [FC] 2,661,055 1,716 - 1 - 0 - 0 - 1 1,717 2026-02-15 18:06:26
341 Before Cynthia [1.3x] 1,323,485 1,060 - 19 - 0 - 2 - 6 736 2026-02-15 18:01:57
273 Ambient Angels [1.3x] [FC] 1,977,780 1,276 - 0 - 0 - 0 - 1 1,276 2026-02-15 17:59:49
584 Puzzle [1.3x] 1,218,745 823 - 21 - 0 - 2 - 3 761 2026-02-15 17:58:03
573 Makiba [1.3x] 2,314,890 1,542 - 4 - 0 - 1 - 0 1,466 2026-02-15 17:56:51
157 Goatstep [1.3x] [FC] 1,712,475 1,104 - 1 - 0 - 0 - 0 1,105 2026-02-15 17:54:56
1 ETERNAL DRAIN [1.3x] [AAA] [FC] 2,022,750 1,305 - 0 - 0 - 0 - 0 1,305 2026-02-15 17:52:03
104 Elusive Reaches [1.3x] 3,051,040 2,221 - 3 - 1 - 1 - 4 1,829 2026-02-15 17:50:10
93 Xecus [1.3x] 1,676,020 1,314 - 6 - 0 - 1 - 1 952 2026-02-15 17:46:41
59 Xecus [1.2x] [FC] 2,047,275 1,320 - 1 - 0 - 0 - 0 1,321 2026-02-15 17:44:43
173 DJ Vasil [1.3x] 2,487,705 1,607 - 20 - 1 - 2 - 4 1,599 2026-02-15 17:42:15
773 Inaba-chan Night Fever ~ Kanon-Kanon [1.4x] 976,820 1,119 - 50 - 2 - 11 - 4 351 2026-02-15 17:39:36
167 Time Files [1.4x] 1,107,040 1,174 - 34 - 0 - 3 - 4 453 2026-02-15 17:37:16
665 Major League Can Can [1.4x] 983,830 673 - 30 - 0 - 5 - 1 607 2026-02-15 17:35:18
388 Macau Underground [1.4x] 1,478,125 1,469 - 34 - 1 - 7 - 3 663 2026-02-15 17:33:32
1,043 Macau Underground [1.5x] 718,155 688 - 26 - 1 - 11 - 2 336 2026-02-15 17:31:48
424 Forbidden Tracks [1.5x] 1,097,365 1,121 - 27 - 0 - 5 - 3 475 2026-02-15 17:30:50
1,012 Forbidden Tracks [1.5x] 305,350 197 - 0 - 0 - 0 - 0 197 2026-02-15 17:28:58
382 Unpause the Heat [1.7x] 999,020 891 - 26 - 4 - 4 - 8 503 2026-02-15 17:27:38
211 Unpause the Heat [1.5x] 1,328,770 920 - 4 - 0 - 1 - 1 822 2026-02-15 17:22:44
166 Unpause the Heat [1.4x] [FC] 1,433,200 923 - 2 - 0 - 0 - 0 925 2026-02-15 17:21:08
184 Unpause the Heat [1.2x] [FC] 1,432,685 922 - 2 - 1 - 0 - 1 925 2026-02-15 17:19:26
148 Unpause the Heat [FC] 1,433,475 924 - 1 - 0 - 0 - 0 925 2026-02-15 17:16:39
906 Capoeira Sundance 978,170 628 - 4 - 0 - 1 - 1 632 2026-02-14 22:50:59
1,414 Mermaid Island 855,030 550 - 2 - 0 - 0 - 1 552 2026-02-14 22:49:00
994 Cutthroat 1,270,835 811 - 10 - 1 - 0 - 1 822 2026-02-14 21:59:57
1 zZz [AAA] [FC] 2,404,050 1,551 - 0 - 0 - 0 - 0 1,551 2026-02-14 21:58:30
605 44 Edit 1,987,475 1,280 - 4 - 1 - 2 - 3 1,283 2026-02-14 21:55:24
947 Starlight [Televisor] 1,249,005 805 - 1 - 0 - 0 - 1 806 2026-02-14 21:45:34
259 Scrambooch 1,380,840 953 - 0 - 0 - 1 - 0 857 2026-02-14 21:37:05
1 Wish (For FFR) [AAA] [FC] 1,746,850 1,127 - 0 - 0 - 0 - 0 1,127 2026-02-14 21:20:22
1,603 GIN TONIC FLAVOR 1,400,355 901 - 3 - 0 - 0 - 1 904 2026-02-14 21:18:06
3,599 burned down the ghost house and escaped spooks 680,155 438 - 1 - 0 - 0 - 1 439 2026-02-14 21:15:59
1 LUV U NEED U [AAA] [FC] [SR] 1,588,750 1,025 - 0 - 0 - 0 - 0 1,025 2026-02-14 21:13:07
379 Nanairopanda [FC] 1,830,530 1,181 - 0 - 0 - 0 - 1 1,181 2026-02-14 21:09:23
1,025 All your base are belong to ME 973,330 622 - 8 - 0 - 3 - 2 630 2026-02-14 12:10:05
253 Serious Shit [FC] [PB] 3,582,280 2,298 - 16 - 0 - 0 - 1 2,314 2026-02-14 12:06:38
220 CirnoRHTL 1,851,515 1,184 - 12 - 1 - 0 - 2 1,197 2026-02-14 12:03:19
270 Credits EX 428,315 277 - 1 - 0 - 1 - 0 276 2026-02-14 12:01:46
60 Herbie Goes Ballistic [FC] 6,247,400 4,024 - 8 - 0 - 0 - 0 4,032 2026-02-14 11:57:34
753 You Time 1,708,465 1,108 - 5 - 0 - 1 - 0 1,098 2026-02-14 11:51:41
49 shule ya samaki 2,393,480 1,540 - 8 - 0 - 2 - 5 1,545 2026-02-14 11:49:46
23 shule ya samaki [FC] 2,932,320 1,882 - 12 - 0 - 0 - 4 1,894 2026-02-14 11:47:32
218 Mike French Hardcore Custom 1,243,220 839 - 12 - 2 - 2 - 1 779 2026-02-14 11:45:07
214 Mike French Hardcore Custom 1,318,565 850 - 6 - 1 - 2 - 1 850 2026-02-14 11:42:47
115 ETERNAL DRAIN v2 554,585 443 - 14 - 1 - 3 - 2 308 2026-02-14 11:40:23
129 ETERNAL DRAIN v2 421,575 258 - 17 - 0 - 0 - 0 275 2026-02-14 11:39:50
147 UR+ MusicEater LV99 1,735,815 1,523 - 31 - 0 - 4 - 6 891 2026-02-14 11:39:00
3,371 do i smile? 2,015,645 1,290 - 13 - 0 - 1 - 6 1,303 2026-02-14 11:36:43
3,104 where is my balls 222,715 145 - 1 - 0 - 1 - 0 143 2026-02-14 11:34:08
605 where is my balls 2,168,085 2,100 - 17 - 0 - 5 - 2 1,010 2026-02-14 11:32:15
238 Jamais Vu 1,890,880 1,965 - 22 - 0 - 6 - 3 806 2026-02-14 11:28:46
1,823 Jamais Vu 660,310 583 - 12 - 4 - 6 - 0 338 2026-02-14 11:26:10
20 Stop Saying We Sound Like Dragonforce [PB] 3,831,955 4,859 - 61 - 2 - 10 - 14 1,146 2026-02-14 11:21:43
63 The Ballad of Mona Lisa [FC] 3,455,540 2,205 - 28 - 2 - 0 - 1 2,235 2026-02-14 11:14:24
12 Hospitality 2,902,365 3,289 - 36 - 3 - 5 - 5 1,085 2026-02-14 11:10:12
13 will work for food [PB] 1,216,050 907 - 2 - 0 - 1 - 2 717 2026-02-14 11:06:01